<?xml version="1.0" encoding="UTF-8" standalone="no" ?>
<gpx xmlns="http://www.topografix.com/GPX/1/1" xmlns:xsi="http://www.w3.org/2001/XMLSchema-instance" xsi:schemaLocation="http://www.topografix.com/GPX/1/1 http://www.topografix.com/GPX/1/1/gpx.xsd" version="1.1" creator="VisuGPX - https://www.visugpx.com">
  <metadata>
    <name>Balade découverte -  Strasbourg grande île en mode shopping</name>
    <desc><![CDATA[Un peu de marche .... beaucoup de shopping :)]]></desc>
  </metadata>
  <trk>
    <name><![CDATA[SityTrail - balade shopping Strasbourg grande ile]]></name>
    <trkseg>
      <trkpt lat="48.58223" lon="7.74986">
        <ele>153</ele>
        <time>2021-08-07T08:02:08.645Z</time>
      </trkpt>
      <trkpt lat="48.58223" lon="7.74987">
        <ele>153</ele>
        <time>2021-08-07T08:02:49.130Z</time>
      </trkpt>
      <trkpt lat="48.58223" lon="7.74987">
        <ele>153</ele>
        <time>2021-08-07T08:02:54.117Z</time>
      </trkpt>
      <trkpt lat="48.5821" lon="7.74981">
        <ele>153</ele>
        <time>2021-08-07T08:02:59.189Z</time>
      </trkpt>
      <trkpt lat="48.58208" lon="7.74957">
        <ele>153</ele>
        <time>2021-08-07T08:03:03.409Z</time>
      </trkpt>
      <trkpt lat="48.58211" lon="7.7494">
        <ele>154</ele>
        <time>2021-08-07T08:03:08.121Z</time>
      </trkpt>
      <trkpt lat="48.58213" lon="7.74933">
        <ele>154</ele>
        <time>2021-08-07T08:03:12.198Z</time>
      </trkpt>
      <trkpt lat="48.58211" lon="7.74929">
        <ele>154</ele>
        <time>2021-08-07T08:03:17.124Z</time>
      </trkpt>
      <trkpt lat="48.58211" lon="7.74921">
        <ele>154</ele>
        <time>2021-08-07T08:03:22.129Z</time>
      </trkpt>
      <trkpt lat="48.58213" lon="7.74914">
        <ele>154</ele>
        <time>2021-08-07T08:03:26.129Z</time>
      </trkpt>
      <trkpt lat="48.58205" lon="7.74909">
        <ele>154</ele>
        <time>2021-08-07T08:03:31.122Z</time>
      </trkpt>
      <trkpt lat="48.58195" lon="7.74906">
        <ele>154</ele>
        <time>2021-08-07T08:03:35.122Z</time>
      </trkpt>
      <trkpt lat="48.58188" lon="7.74893">
        <ele>153</ele>
        <time>2021-08-07T08:03:40.124Z</time>
      </trkpt>
      <trkpt lat="48.58185" lon="7.74886">
        <ele>153</ele>
        <time>2021-08-07T08:03:44.360Z</time>
      </trkpt>
      <trkpt lat="48.58182" lon="7.74881">
        <ele>153</ele>
        <time>2021-08-07T08:03:48.603Z</time>
      </trkpt>
      <trkpt lat="48.58179" lon="7.74878">
        <ele>156</ele>
        <time>2021-08-07T08:03:52.845Z</time>
      </trkpt>
      <trkpt lat="48.58174" lon="7.74878">
        <ele>156</ele>
        <time>2021-08-07T08:03:57.079Z</time>
      </trkpt>
      <trkpt lat="48.58171" lon="7.74875">
        <ele>154</ele>
        <time>2021-08-07T08:04:02.356Z</time>
      </trkpt>
      <trkpt lat="48.58168" lon="7.74867">
        <ele>154</ele>
        <time>2021-08-07T08:04:06.551Z</time>
      </trkpt>
      <trkpt lat="48.58165" lon="7.74861">
        <ele>154</ele>
        <time>2021-08-07T08:04:10.727Z</time>
      </trkpt>
      <trkpt lat="48.58165" lon="7.74852">
        <ele>154</ele>
        <time>2021-08-07T08:04:14.915Z</time>
      </trkpt>
      <trkpt lat="48.58163" lon="7.74848">
        <ele>154</ele>
        <time>2021-08-07T08:04:19.086Z</time>
      </trkpt>
      <trkpt lat="48.58163" lon="7.74844">
        <ele>152</ele>
        <time>2021-08-07T08:04:23.280Z</time>
      </trkpt>
      <trkpt lat="48.58165" lon="7.7484">
        <ele>152</ele>
        <time>2021-08-07T08:04:27.467Z</time>
      </trkpt>
      <trkpt lat="48.58165" lon="7.74835">
        <ele>152</ele>
        <time>2021-08-07T08:04:31.727Z</time>
      </trkpt>
      <trkpt lat="48.58168" lon="7.74831">
        <ele>152</ele>
        <time>2021-08-07T08:04:35.899Z</time>
      </trkpt>
      <trkpt lat="48.58174" lon="7.74827">
        <ele>152</ele>
        <time>2021-08-07T08:04:41.156Z</time>
      </trkpt>
      <trkpt lat="48.58178" lon="7.74824">
        <ele>152</ele>
        <time>2021-08-07T08:04:45.365Z</time>
      </trkpt>
      <trkpt lat="48.58178" lon="7.74815">
        <ele>151</ele>
        <time>2021-08-07T08:04:50.328Z</time>
      </trkpt>
      <trkpt lat="48.5818" lon="7.74809">
        <ele>151</ele>
        <time>2021-08-07T08:04:54.563Z</time>
      </trkpt>
      <trkpt lat="48.58182" lon="7.74805">
        <ele>151</ele>
        <time>2021-08-07T08:04:58.802Z</time>
      </trkpt>
      <trkpt lat="48.58184" lon="7.74799">
        <ele>151</ele>
        <time>2021-08-07T08:05:03.073Z</time>
      </trkpt>
      <trkpt lat="48.58186" lon="7.74791">
        <ele>152</ele>
        <time>2021-08-07T08:05:08.358Z</time>
      </trkpt>
      <trkpt lat="48.58188" lon="7.74785">
        <ele>152</ele>
        <time>2021-08-07T08:05:12.543Z</time>
      </trkpt>
      <trkpt lat="48.58193" lon="7.7478">
        <ele>152</ele>
        <time>2021-08-07T08:05:16.704Z</time>
      </trkpt>
      <trkpt lat="48.58197" lon="7.74776">
        <ele>152</ele>
        <time>2021-08-07T08:05:20.891Z</time>
      </trkpt>
      <trkpt lat="48.58201" lon="7.74772">
        <ele>152</ele>
        <time>2021-08-07T08:05:25.073Z</time>
      </trkpt>
      <trkpt lat="48.58203" lon="7.74768">
        <ele>152</ele>
        <time>2021-08-07T08:05:30.311Z</time>
      </trkpt>
      <trkpt lat="48.58198" lon="7.74765">
        <ele>152</ele>
        <time>2021-08-07T08:05:35.241Z</time>
      </trkpt>
      <trkpt lat="48.58196" lon="7.74761">
        <ele>151</ele>
        <time>2021-08-07T08:05:39.478Z</time>
      </trkpt>
      <trkpt lat="48.58196" lon="7.74751">
        <ele>151</ele>
        <time>2021-08-07T08:05:43.705Z</time>
      </trkpt>
      <trkpt lat="48.58194" lon="7.74742">
        <ele>151</ele>
        <time>2021-08-07T08:05:47.932Z</time>
      </trkpt>
      <trkpt lat="48.58192" lon="7.74737">
        <ele>151</ele>
        <time>2021-08-07T08:05:52.146Z</time>
      </trkpt>
      <trkpt lat="48.58191" lon="7.74729">
        <ele>151</ele>
        <time>2021-08-07T08:05:57.140Z</time>
      </trkpt>
      <trkpt lat="48.58189" lon="7.74721">
        <ele>151</ele>
        <time>2021-08-07T08:06:02.121Z</time>
      </trkpt>
      <trkpt lat="48.5819" lon="7.74715">
        <ele>151</ele>
        <time>2021-08-07T08:06:06.127Z</time>
      </trkpt>
      <trkpt lat="48.5819" lon="7.74707">
        <ele>151</ele>
        <time>2021-08-07T08:06:11.126Z</time>
      </trkpt>
      <trkpt lat="48.5819" lon="7.747">
        <ele>151</ele>
        <time>2021-08-07T08:06:15.129Z</time>
      </trkpt>
      <trkpt lat="48.58191" lon="7.74692">
        <ele>151</ele>
        <time>2021-08-07T08:06:20.511Z</time>
      </trkpt>
      <trkpt lat="48.58191" lon="7.74684">
        <ele>151</ele>
        <time>2021-08-07T08:06:25.242Z</time>
      </trkpt>
      <trkpt lat="48.58192" lon="7.74673">
        <ele>151</ele>
        <time>2021-08-07T08:06:30.131Z</time>
      </trkpt>
      <trkpt lat="48.58193" lon="7.74666">
        <ele>151</ele>
        <time>2021-08-07T08:06:34.371Z</time>
      </trkpt>
      <trkpt lat="48.58193" lon="7.74654">
        <ele>151</ele>
        <time>2021-08-07T08:06:39.344Z</time>
      </trkpt>
      <trkpt lat="48.58195" lon="7.74645">
        <ele>152</ele>
        <time>2021-08-07T08:06:43.585Z</time>
      </trkpt>
      <trkpt lat="48.58195" lon="7.74629">
        <ele>152</ele>
        <time>2021-08-07T08:07:13.410Z</time>
      </trkpt>
      <trkpt lat="48.58197" lon="7.74629">
        <ele>152</ele>
        <time>2021-08-07T08:07:18.229Z</time>
      </trkpt>
      <trkpt lat="48.582" lon="7.74628">
        <ele>152</ele>
        <time>2021-08-07T08:07:22.361Z</time>
      </trkpt>
      <trkpt lat="48.58204" lon="7.74628">
        <ele>152</ele>
        <time>2021-08-07T08:07:26.567Z</time>
      </trkpt>
      <trkpt lat="48.58207" lon="7.74629">
        <ele>152</ele>
        <time>2021-08-07T08:07:30.776Z</time>
      </trkpt>
      <trkpt lat="48.58207" lon="7.7463">
        <ele>152</ele>
        <time>2021-08-07T08:07:35.117Z</time>
      </trkpt>
      <trkpt lat="48.58207" lon="7.7463">
        <ele>152</ele>
        <time>2021-08-07T08:07:40.120Z</time>
      </trkpt>
      <trkpt lat="48.5821" lon="7.7463">
        <ele>150</ele>
        <time>2021-08-07T08:07:44.169Z</time>
      </trkpt>
      <trkpt lat="48.58213" lon="7.74628">
        <ele>150</ele>
        <time>2021-08-07T08:07:48.323Z</time>
      </trkpt>
      <trkpt lat="48.58217" lon="7.74625">
        <ele>151</ele>
        <time>2021-08-07T08:07:52.508Z</time>
      </trkpt>
      <trkpt lat="48.58225" lon="7.74623">
        <ele>151</ele>
        <time>2021-08-07T08:08:05.138Z</time>
      </trkpt>
      <trkpt lat="48.58225" lon="7.74623">
        <ele>151</ele>
        <time>2021-08-07T08:08:09.151Z</time>
      </trkpt>
      <trkpt lat="48.58226" lon="7.74621">
        <ele>151</ele>
        <time>2021-08-07T08:08:14.510Z</time>
      </trkpt>
      <trkpt lat="48.58229" lon="7.74618">
        <ele>151</ele>
        <time>2021-08-07T08:08:18.691Z</time>
      </trkpt>
      <trkpt lat="48.58231" lon="7.74612">
        <ele>151</ele>
        <time>2021-08-07T08:08:22.887Z</time>
      </trkpt>
      <trkpt lat="48.58229" lon="7.74607">
        <ele>151</ele>
        <time>2021-08-07T08:08:27.083Z</time>
      </trkpt>
      <trkpt lat="48.58227" lon="7.74602">
        <ele>151</ele>
        <time>2021-08-07T08:08:31.255Z</time>
      </trkpt>
      <trkpt lat="48.58227" lon="7.74596">
        <ele>153</ele>
        <time>2021-08-07T08:08:35.426Z</time>
      </trkpt>
      <trkpt lat="48.58229" lon="7.74591">
        <ele>153</ele>
        <time>2021-08-07T08:08:39.609Z</time>
      </trkpt>
      <trkpt lat="48.58232" lon="7.74589">
        <ele>153</ele>
        <time>2021-08-07T08:08:43.838Z</time>
      </trkpt>
      <trkpt lat="48.5824" lon="7.74593">
        <ele>152</ele>
        <time>2021-08-07T08:08:48.028Z</time>
      </trkpt>
      <trkpt lat="48.58246" lon="7.74593">
        <ele>152</ele>
        <time>2021-08-07T08:08:52.184Z</time>
      </trkpt>
      <trkpt lat="48.58252" lon="7.74592">
        <ele>152</ele>
        <time>2021-08-07T08:08:56.360Z</time>
      </trkpt>
      <trkpt lat="48.58256" lon="7.74586">
        <ele>152</ele>
        <time>2021-08-07T08:09:00.524Z</time>
      </trkpt>
      <trkpt lat="48.5826" lon="7.74579">
        <ele>152</ele>
        <time>2021-08-07T08:09:04.652Z</time>
      </trkpt>
      <trkpt lat="48.58266" lon="7.74575">
        <ele>148</ele>
        <time>2021-08-07T08:09:08.859Z</time>
      </trkpt>
      <trkpt lat="48.58269" lon="7.7457">
        <ele>148</ele>
        <time>2021-08-07T08:09:12.955Z</time>
      </trkpt>
      <trkpt lat="48.58271" lon="7.74555">
        <ele>147</ele>
        <time>2021-08-07T08:09:17.119Z</time>
      </trkpt>
      <trkpt lat="48.58275" lon="7.74556">
        <ele>147</ele>
        <time>2021-08-07T08:09:21.164Z</time>
      </trkpt>
      <trkpt lat="48.58279" lon="7.74561">
        <ele>147</ele>
        <time>2021-08-07T08:09:26.129Z</time>
      </trkpt>
      <trkpt lat="48.58284" lon="7.74564">
        <ele>147</ele>
        <time>2021-08-07T08:09:31.178Z</time>
      </trkpt>
      <trkpt lat="48.58284" lon="7.7456">
        <ele>147</ele>
        <time>2021-08-07T08:09:36.155Z</time>
      </trkpt>
      <trkpt lat="48.58282" lon="7.74551">
        <ele>147</ele>
        <time>2021-08-07T08:09:40.202Z</time>
      </trkpt>
      <trkpt lat="48.58279" lon="7.74541">
        <ele>149</ele>
        <time>2021-08-07T08:09:44.315Z</time>
      </trkpt>
      <trkpt lat="48.58275" lon="7.74539">
        <ele>149</ele>
        <time>2021-08-07T08:09:48.531Z</time>
      </trkpt>
      <trkpt lat="48.58273" lon="7.74535">
        <ele>149</ele>
        <time>2021-08-07T08:09:52.724Z</time>
      </trkpt>
      <trkpt lat="48.58275" lon="7.74531">
        <ele>149</ele>
        <time>2021-08-07T08:09:57.124Z</time>
      </trkpt>
      <trkpt lat="48.58275" lon="7.74529">
        <ele>149</ele>
        <time>2021-08-07T08:10:01.133Z</time>
      </trkpt>
      <trkpt lat="48.58268" lon="7.74529">
        <ele>149</ele>
        <time>2021-08-07T08:10:05.255Z</time>
      </trkpt>
      <trkpt lat="48.58265" lon="7.74529">
        <ele>149</ele>
        <time>2021-08-07T08:10:09.494Z</time>
      </trkpt>
      <trkpt lat="48.58264" lon="7.74537">
        <ele>154</ele>
        <time>2021-08-07T08:10:13.724Z</time>
      </trkpt>
      <trkpt lat="48.58262" lon="7.74543">
        <ele>151</ele>
        <time>2021-08-07T08:10:17.928Z</time>
      </trkpt>
      <trkpt lat="48.58262" lon="7.74545">
        <ele>151</ele>
        <time>2021-08-07T08:10:22.172Z</time>
      </trkpt>
      <trkpt lat="48.58262" lon="7.74548">
        <ele>151</ele>
        <time>2021-08-07T08:10:27.127Z</time>
      </trkpt>
      <trkpt lat="48.5826" lon="7.7455">
        <ele>151</ele>
        <time>2021-08-07T08:10:31.315Z</time>
      </trkpt>
      <trkpt lat="48.58258" lon="7.74554">
        <ele>151</ele>
        <time>2021-08-07T08:10:35.514Z</time>
      </trkpt>
      <trkpt lat="48.58256" lon="7.74556">
        <ele>151</ele>
        <time>2021-08-07T08:10:40.252Z</time>
      </trkpt>
      <trkpt lat="48.58252" lon="7.74559">
        <ele>151</ele>
        <time>2021-08-07T08:10:44.465Z</time>
      </trkpt>
      <trkpt lat="48.58249" lon="7.74561">
        <ele>151</ele>
        <time>2021-08-07T08:10:48.702Z</time>
      </trkpt>
      <trkpt lat="48.58246" lon="7.74565">
        <ele>151</ele>
        <time>2021-08-07T08:10:52.944Z</time>
      </trkpt>
      <trkpt lat="48.58241" lon="7.7457">
        <ele>152</ele>
        <time>2021-08-07T08:10:57.144Z</time>
      </trkpt>
      <trkpt lat="48.58237" lon="7.74576">
        <ele>152</ele>
        <time>2021-08-07T08:11:01.401Z</time>
      </trkpt>
      <trkpt lat="48.58233" lon="7.74581">
        <ele>153</ele>
        <time>2021-08-07T08:11:05.638Z</time>
      </trkpt>
      <trkpt lat="48.58233" lon="7.74602">
        <ele>151</ele>
        <time>2021-08-07T08:14:48.124Z</time>
      </trkpt>
      <trkpt lat="48.58235" lon="7.74603">
        <ele>151</ele>
        <time>2021-08-07T08:14:52.203Z</time>
      </trkpt>
      <trkpt lat="48.58236" lon="7.74604">
        <ele>150</ele>
        <time>2021-08-07T08:14:57.127Z</time>
      </trkpt>
      <trkpt lat="48.58237" lon="7.74604">
        <ele>150</ele>
        <time>2021-08-07T08:15:01.132Z</time>
      </trkpt>
      <trkpt lat="48.58237" lon="7.74605">
        <ele>150</ele>
        <time>2021-08-07T08:15:05.126Z</time>
      </trkpt>
      <trkpt lat="48.58239" lon="7.74604">
        <ele>150</ele>
        <time>2021-08-07T08:19:25.133Z</time>
      </trkpt>
      <trkpt lat="48.58241" lon="7.7461">
        <ele>150</ele>
        <time>2021-08-07T08:19:29.126Z</time>
      </trkpt>
      <trkpt lat="48.58245" lon="7.74609">
        <ele>150</ele>
        <time>2021-08-07T08:19:33.131Z</time>
      </trkpt>
      <trkpt lat="48.58248" lon="7.74601">
        <ele>150</ele>
        <time>2021-08-07T08:19:38.130Z</time>
      </trkpt>
      <trkpt lat="48.58251" lon="7.74597">
        <ele>152</ele>
        <time>2021-08-07T08:19:42.133Z</time>
      </trkpt>
      <trkpt lat="48.58257" lon="7.74595">
        <ele>152</ele>
        <time>2021-08-07T08:19:46.196Z</time>
      </trkpt>
      <trkpt lat="48.58261" lon="7.7459">
        <ele>152</ele>
        <time>2021-08-07T08:19:50.426Z</time>
      </trkpt>
      <trkpt lat="48.58266" lon="7.7458">
        <ele>148</ele>
        <time>2021-08-07T08:19:54.709Z</time>
      </trkpt>
      <trkpt lat="48.58271" lon="7.74571">
        <ele>148</ele>
        <time>2021-08-07T08:19:59.151Z</time>
      </trkpt>
      <trkpt lat="48.5827" lon="7.74561">
        <ele>147</ele>
        <time>2021-08-07T08:20:03.327Z</time>
      </trkpt>
      <trkpt lat="48.58273" lon="7.74551">
        <ele>147</ele>
        <time>2021-08-07T08:20:07.541Z</time>
      </trkpt>
      <trkpt lat="48.58275" lon="7.74543">
        <ele>147</ele>
        <time>2021-08-07T08:20:11.699Z</time>
      </trkpt>
      <trkpt lat="48.58276" lon="7.74536">
        <ele>149</ele>
        <time>2021-08-07T08:20:15.864Z</time>
      </trkpt>
      <trkpt lat="48.58277" lon="7.7453">
        <ele>149</ele>
        <time>2021-08-07T08:20:20.061Z</time>
      </trkpt>
      <trkpt lat="48.58278" lon="7.74521">
        <ele>149</ele>
        <time>2021-08-07T08:20:25.282Z</time>
      </trkpt>
      <trkpt lat="48.58277" lon="7.7451">
        <ele>151</ele>
        <time>2021-08-07T08:20:31.498Z</time>
      </trkpt>
      <trkpt lat="48.58279" lon="7.74497">
        <ele>151</ele>
        <time>2021-08-07T08:20:37.725Z</time>
      </trkpt>
      <trkpt lat="48.5828" lon="7.74488">
        <ele>151</ele>
        <time>2021-08-07T08:20:43.956Z</time>
      </trkpt>
      <trkpt lat="48.58281" lon="7.74477">
        <ele>153</ele>
        <time>2021-08-07T08:20:50.171Z</time>
      </trkpt>
      <trkpt lat="48.58282" lon="7.74468">
        <ele>153</ele>
        <time>2021-08-07T08:20:54.326Z</time>
      </trkpt>
      <trkpt lat="48.58282" lon="7.74461">
        <ele>153</ele>
        <time>2021-08-07T08:20:58.482Z</time>
      </trkpt>
      <trkpt lat="48.5828" lon="7.74454">
        <ele>153</ele>
        <time>2021-08-07T08:21:02.580Z</time>
      </trkpt>
      <trkpt lat="48.58283" lon="7.74449">
        <ele>153</ele>
        <time>2021-08-07T08:21:08.833Z</time>
      </trkpt>
      <trkpt lat="48.58284" lon="7.74442">
        <ele>153</ele>
        <time>2021-08-07T08:21:15.085Z</time>
      </trkpt>
      <trkpt lat="48.58282" lon="7.74435">
        <ele>153</ele>
        <time>2021-08-07T08:21:19.192Z</time>
      </trkpt>
      <trkpt lat="48.58278" lon="7.74424">
        <ele>152</ele>
        <time>2021-08-07T08:21:23.324Z</time>
      </trkpt>
      <trkpt lat="48.58267" lon="7.74425">
        <ele>152</ele>
        <time>2021-08-07T08:21:27.507Z</time>
      </trkpt>
      <trkpt lat="48.58261" lon="7.74426">
        <ele>150</ele>
        <time>2021-08-07T08:21:31.621Z</time>
      </trkpt>
      <trkpt lat="48.58261" lon="7.74424">
        <ele>150</ele>
        <time>2021-08-07T08:21:36.136Z</time>
      </trkpt>
      <trkpt lat="48.58256" lon="7.74408">
        <ele>150</ele>
        <time>2021-08-07T08:22:16.119Z</time>
      </trkpt>
      <trkpt lat="48.58256" lon="7.74408">
        <ele>150</ele>
        <time>2021-08-07T08:22:20.123Z</time>
      </trkpt>
      <trkpt lat="48.58257" lon="7.74405">
        <ele>150</ele>
        <time>2021-08-07T08:22:25.125Z</time>
      </trkpt>
      <trkpt lat="48.58256" lon="7.74403">
        <ele>150</ele>
        <time>2021-08-07T08:22:30.116Z</time>
      </trkpt>
      <trkpt lat="48.58265" lon="7.74395">
        <ele>150</ele>
        <time>2021-08-07T08:22:35.129Z</time>
      </trkpt>
      <trkpt lat="48.58261" lon="7.74403">
        <ele>150</ele>
        <time>2021-08-07T08:30:24.449Z</time>
      </trkpt>
      <trkpt lat="48.58258" lon="7.74399">
        <ele>149</ele>
        <time>2021-08-07T08:30:28.636Z</time>
      </trkpt>
      <trkpt lat="48.58255" lon="7.74393">
        <ele>149</ele>
        <time>2021-08-07T08:30:32.813Z</time>
      </trkpt>
      <trkpt lat="48.58256" lon="7.74388">
        <ele>149</ele>
        <time>2021-08-07T08:30:36.973Z</time>
      </trkpt>
      <trkpt lat="48.58257" lon="7.74383">
        <ele>149</ele>
        <time>2021-08-07T08:30:41.147Z</time>
      </trkpt>
      <trkpt lat="48.58258" lon="7.74374">
        <ele>148</ele>
        <time>2021-08-07T08:30:47.367Z</time>
      </trkpt>
      <trkpt lat="48.58264" lon="7.74371">
        <ele>148</ele>
        <time>2021-08-07T08:30:53.555Z</time>
      </trkpt>
      <trkpt lat="48.58269" lon="7.74371">
        <ele>148</ele>
        <time>2021-08-07T08:30:59.747Z</time>
      </trkpt>
      <trkpt lat="48.58275" lon="7.74367">
        <ele>148</ele>
        <time>2021-08-07T08:31:05.955Z</time>
      </trkpt>
      <trkpt lat="48.58279" lon="7.74362">
        <ele>148</ele>
        <time>2021-08-07T08:31:12.169Z</time>
      </trkpt>
      <trkpt lat="48.58282" lon="7.74358">
        <ele>148</ele>
        <time>2021-08-07T08:31:16.322Z</time>
      </trkpt>
      <trkpt lat="48.58286" lon="7.74357">
        <ele>148</ele>
        <time>2021-08-07T08:31:20.399Z</time>
      </trkpt>
      <trkpt lat="48.58289" lon="7.74355">
        <ele>148</ele>
        <time>2021-08-07T08:31:24.563Z</time>
      </trkpt>
      <trkpt lat="48.58293" lon="7.74354">
        <ele>150</ele>
        <time>2021-08-07T08:31:28.677Z</time>
      </trkpt>
      <trkpt lat="48.58296" lon="7.74353">
        <ele>150</ele>
        <time>2021-08-07T08:31:32.842Z</time>
      </trkpt>
      <trkpt lat="48.583" lon="7.74353">
        <ele>150</ele>
        <time>2021-08-07T08:31:36.961Z</time>
      </trkpt>
      <trkpt lat="48.58305" lon="7.74355">
        <ele>150</ele>
        <time>2021-08-07T08:31:41.094Z</time>
      </trkpt>
      <trkpt lat="48.58311" lon="7.74359">
        <ele>150</ele>
        <time>2021-08-07T08:31:46.220Z</time>
      </trkpt>
      <trkpt lat="48.58316" lon="7.74364">
        <ele>150</ele>
        <time>2021-08-07T08:31:51.409Z</time>
      </trkpt>
      <trkpt lat="48.58322" lon="7.74369">
        <ele>153</ele>
        <time>2021-08-07T08:31:56.564Z</time>
      </trkpt>
      <trkpt lat="48.58329" lon="7.74372">
        <ele>153</ele>
        <time>2021-08-07T08:32:01.688Z</time>
      </trkpt>
      <trkpt lat="48.58334" lon="7.74378">
        <ele>153</ele>
        <time>2021-08-07T08:32:06.877Z</time>
      </trkpt>
      <trkpt lat="48.58339" lon="7.7438">
        <ele>153</ele>
        <time>2021-08-07T08:32:12.076Z</time>
      </trkpt>
      <trkpt lat="48.58346" lon="7.74382">
        <ele>153</ele>
        <time>2021-08-07T08:32:18.206Z</time>
      </trkpt>
      <trkpt lat="48.58352" lon="7.74388">
        <ele>153</ele>
        <time>2021-08-07T08:32:24.417Z</time>
      </trkpt>
      <trkpt lat="48.5836" lon="7.74407">
        <ele>152</ele>
        <time>2021-08-07T08:32:30.652Z</time>
      </trkpt>
      <trkpt lat="48.58357" lon="7.74417">
        <ele>152</ele>
        <time>2021-08-07T08:32:36.838Z</time>
      </trkpt>
      <trkpt lat="48.58362" lon="7.74419">
        <ele>152</ele>
        <time>2021-08-07T08:32:41.961Z</time>
      </trkpt>
      <trkpt lat="48.5837" lon="7.74434">
        <ele>149</ele>
        <time>2021-08-07T08:32:46.212Z</time>
      </trkpt>
      <trkpt lat="48.58371" lon="7.74442">
        <ele>149</ele>
        <time>2021-08-07T08:32:50.405Z</time>
      </trkpt>
      <trkpt lat="48.58372" lon="7.74449">
        <ele>149</ele>
        <time>2021-08-07T08:32:54.606Z</time>
      </trkpt>
      <trkpt lat="48.58373" lon="7.74457">
        <ele>149</ele>
        <time>2021-08-07T08:32:58.779Z</time>
      </trkpt>
      <trkpt lat="48.58374" lon="7.74463">
        <ele>148</ele>
        <time>2021-08-07T08:33:03.030Z</time>
      </trkpt>
      <trkpt lat="48.58372" lon="7.7447">
        <ele>148</ele>
        <time>2021-08-07T08:33:08.250Z</time>
      </trkpt>
      <trkpt lat="48.58372" lon="7.74481">
        <ele>148</ele>
        <time>2021-08-07T08:33:14.558Z</time>
      </trkpt>
      <trkpt lat="48.58372" lon="7.74484">
        <ele>148</ele>
        <time>2021-08-07T08:33:19.167Z</time>
      </trkpt>
      <trkpt lat="48.58371" lon="7.74488">
        <ele>146</ele>
        <time>2021-08-07T08:33:23.222Z</time>
      </trkpt>
      <trkpt lat="48.58371" lon="7.74489">
        <ele>146</ele>
        <time>2021-08-07T08:33:28.126Z</time>
      </trkpt>
      <trkpt lat="48.58373" lon="7.74495">
        <ele>146</ele>
        <time>2021-08-07T08:33:32.243Z</time>
      </trkpt>
      <trkpt lat="48.58373" lon="7.74497">
        <ele>146</ele>
        <time>2021-08-07T08:33:37.122Z</time>
      </trkpt>
      <trkpt lat="48.58373" lon="7.74506">
        <ele>146</ele>
        <time>2021-08-07T08:33:41.252Z</time>
      </trkpt>
      <trkpt lat="48.58371" lon="7.74515">
        <ele>144</ele>
        <time>2021-08-07T08:33:45.452Z</time>
      </trkpt>
      <trkpt lat="48.58369" lon="7.74521">
        <ele>144</ele>
        <time>2021-08-07T08:33:49.627Z</time>
      </trkpt>
      <trkpt lat="48.58368" lon="7.74529">
        <ele>144</ele>
        <time>2021-08-07T08:33:53.787Z</time>
      </trkpt>
      <trkpt lat="48.5837" lon="7.74536">
        <ele>144</ele>
        <time>2021-08-07T08:33:58.008Z</time>
      </trkpt>
      <trkpt lat="48.58375" lon="7.74532">
        <ele>144</ele>
        <time>2021-08-07T08:34:02.241Z</time>
      </trkpt>
      <trkpt lat="48.58375" lon="7.74532">
        <ele>146</ele>
        <time>2021-08-07T08:34:07.124Z</time>
      </trkpt>
      <trkpt lat="48.58377" lon="7.74531">
        <ele>146</ele>
        <time>2021-08-07T08:34:11.207Z</time>
      </trkpt>
      <trkpt lat="48.58383" lon="7.74531">
        <ele>146</ele>
        <time>2021-08-07T08:34:16.215Z</time>
      </trkpt>
      <trkpt lat="48.58388" lon="7.74539">
        <ele>146</ele>
        <time>2021-08-07T08:34:21.134Z</time>
      </trkpt>
      <trkpt lat="48.58389" lon="7.74528">
        <ele>146</ele>
        <time>2021-08-07T08:36:28.849Z</time>
      </trkpt>
      <trkpt lat="48.58386" lon="7.74523">
        <ele>146</ele>
        <time>2021-08-07T08:36:33.078Z</time>
      </trkpt>
      <trkpt lat="48.58381" lon="7.74518">
        <ele>146</ele>
        <time>2021-08-07T08:36:37.331Z</time>
      </trkpt>
      <trkpt lat="48.58379" lon="7.74516">
        <ele>146</ele>
        <time>2021-08-07T08:36:41.513Z</time>
      </trkpt>
      <trkpt lat="48.58374" lon="7.74512">
        <ele>146</ele>
        <time>2021-08-07T08:36:46.332Z</time>
      </trkpt>
      <trkpt lat="48.58374" lon="7.74505">
        <ele>146</ele>
        <time>2021-08-07T08:36:50.537Z</time>
      </trkpt>
      <trkpt lat="48.58373" lon="7.745">
        <ele>146</ele>
        <time>2021-08-07T08:36:54.776Z</time>
      </trkpt>
      <trkpt lat="48.5837" lon="7.74498">
        <ele>146</ele>
        <time>2021-08-07T08:36:59.170Z</time>
      </trkpt>
      <trkpt lat="48.58367" lon="7.74496">
        <ele>146</ele>
        <time>2021-08-07T08:37:03.397Z</time>
      </trkpt>
      <trkpt lat="48.58362" lon="7.74497">
        <ele>146</ele>
        <time>2021-08-07T08:37:07.607Z</time>
      </trkpt>
      <trkpt lat="48.58359" lon="7.74499">
        <ele>146</ele>
        <time>2021-08-07T08:37:11.855Z</time>
      </trkpt>
      <trkpt lat="48.5836" lon="7.74502">
        <ele>146</ele>
        <time>2021-08-07T08:37:16.124Z</time>
      </trkpt>
      <trkpt lat="48.58357" lon="7.74505">
        <ele>146</ele>
        <time>2021-08-07T08:37:20.394Z</time>
      </trkpt>
      <trkpt lat="48.58354" lon="7.74508">
        <ele>146</ele>
        <time>2021-08-07T08:37:25.409Z</time>
      </trkpt>
      <trkpt lat="48.5835" lon="7.74513">
        <ele>146</ele>
        <time>2021-08-07T08:37:29.662Z</time>
      </trkpt>
      <trkpt lat="48.58347" lon="7.7452">
        <ele>141</ele>
        <time>2021-08-07T08:37:33.994Z</time>
      </trkpt>
      <trkpt lat="48.58345" lon="7.74526">
        <ele>141</ele>
        <time>2021-08-07T08:37:39.245Z</time>
      </trkpt>
      <trkpt lat="48.5834" lon="7.74526">
        <ele>141</ele>
        <time>2021-08-07T08:37:43.428Z</time>
      </trkpt>
      <trkpt lat="48.58337" lon="7.74527">
        <ele>141</ele>
        <time>2021-08-07T08:37:47.584Z</time>
      </trkpt>
      <trkpt lat="48.58331" lon="7.74529">
        <ele>141</ele>
        <time>2021-08-07T08:37:51.770Z</time>
      </trkpt>
      <trkpt lat="48.58326" lon="7.74533">
        <ele>141</ele>
        <time>2021-08-07T08:37:55.981Z</time>
      </trkpt>
      <trkpt lat="48.58322" lon="7.74537">
        <ele>141</ele>
        <time>2021-08-07T08:38:00.246Z</time>
      </trkpt>
      <trkpt lat="48.58318" lon="7.74541">
        <ele>144</ele>
        <time>2021-08-07T08:38:04.432Z</time>
      </trkpt>
      <trkpt lat="48.58315" lon="7.74545">
        <ele>142</ele>
        <time>2021-08-07T08:38:08.633Z</time>
      </trkpt>
      <trkpt lat="48.5831" lon="7.74547">
        <ele>142</ele>
        <time>2021-08-07T08:38:12.761Z</time>
      </trkpt>
      <trkpt lat="48.58304" lon="7.74546">
        <ele>142</ele>
        <time>2021-08-07T08:38:16.916Z</time>
      </trkpt>
      <trkpt lat="48.58302" lon="7.74544">
        <ele>142</ele>
        <time>2021-08-07T08:38:21.082Z</time>
      </trkpt>
      <trkpt lat="48.58293" lon="7.74546">
        <ele>142</ele>
        <time>2021-08-07T08:39:00.331Z</time>
      </trkpt>
      <trkpt lat="48.58293" lon="7.7454">
        <ele>144</ele>
        <time>2021-08-07T08:39:05.128Z</time>
      </trkpt>
      <trkpt lat="48.58292" lon="7.7454">
        <ele>149</ele>
        <time>2021-08-07T08:39:10.135Z</time>
      </trkpt>
      <trkpt lat="48.58245" lon="7.7446">
        <ele>155</ele>
        <time>2021-08-07T08:43:13.129Z</time>
      </trkpt>
      <trkpt lat="48.58245" lon="7.74432">
        <ele>153</ele>
        <time>2021-08-07T08:43:18.122Z</time>
      </trkpt>
      <trkpt lat="48.58237" lon="7.7445">
        <ele>153</ele>
        <time>2021-08-07T08:43:31.121Z</time>
      </trkpt>
      <trkpt lat="48.58236" lon="7.74459">
        <ele>155</ele>
        <time>2021-08-07T08:43:35.125Z</time>
      </trkpt>
      <trkpt lat="48.58229" lon="7.74467">
        <ele>153</ele>
        <time>2021-08-07T08:43:40.121Z</time>
      </trkpt>
      <trkpt lat="48.58264" lon="7.74484">
        <ele>153</ele>
        <time>2021-08-07T08:48:04.136Z</time>
      </trkpt>
      <trkpt lat="48.58271" lon="7.74485">
        <ele>153</ele>
        <time>2021-08-07T08:48:08.801Z</time>
      </trkpt>
      <trkpt lat="48.58273" lon="7.74478">
        <ele>153</ele>
        <time>2021-08-07T08:48:13.264Z</time>
      </trkpt>
      <trkpt lat="48.58275" lon="7.7447">
        <ele>153</ele>
        <time>2021-08-07T08:48:17.446Z</time>
      </trkpt>
      <trkpt lat="48.58275" lon="7.74467">
        <ele>153</ele>
        <time>2021-08-07T08:48:22.119Z</time>
      </trkpt>
      <trkpt lat="48.58276" lon="7.74468">
        <ele>153</ele>
        <time>2021-08-07T08:48:26.326Z</time>
      </trkpt>
      <trkpt lat="48.58275" lon="7.74472">
        <ele>153</ele>
        <time>2021-08-07T08:48:30.549Z</time>
      </trkpt>
      <trkpt lat="48.58274" lon="7.74475">
        <ele>153</ele>
        <time>2021-08-07T08:48:34.726Z</time>
      </trkpt>
      <trkpt lat="48.58276" lon="7.7448">
        <ele>153</ele>
        <time>2021-08-07T08:48:38.908Z</time>
      </trkpt>
      <trkpt lat="48.58277" lon="7.74486">
        <ele>153</ele>
        <time>2021-08-07T08:48:43.141Z</time>
      </trkpt>
      <trkpt lat="48.58278" lon="7.74492">
        <ele>151</ele>
        <time>2021-08-07T08:48:47.283Z</time>
      </trkpt>
      <trkpt lat="48.58279" lon="7.74497">
        <ele>151</ele>
        <time>2021-08-07T08:48:51.411Z</time>
      </trkpt>
      <trkpt lat="48.5828" lon="7.74502">
        <ele>151</ele>
        <time>2021-08-07T08:48:55.593Z</time>
      </trkpt>
      <trkpt lat="48.5828" lon="7.74508">
        <ele>151</ele>
        <time>2021-08-07T08:48:59.778Z</time>
      </trkpt>
      <trkpt lat="48.58281" lon="7.74513">
        <ele>151</ele>
        <time>2021-08-07T08:49:03.906Z</time>
      </trkpt>
      <trkpt lat="48.58282" lon="7.74518">
        <ele>149</ele>
        <time>2021-08-07T08:49:08.074Z</time>
      </trkpt>
      <trkpt lat="48.58283" lon="7.74526">
        <ele>149</ele>
        <time>2021-08-07T08:49:13.284Z</time>
      </trkpt>
      <trkpt lat="48.58282" lon="7.74535">
        <ele>149</ele>
        <time>2021-08-07T08:49:19.516Z</time>
      </trkpt>
      <trkpt lat="48.58281" lon="7.74549">
        <ele>147</ele>
        <time>2021-08-07T08:49:25.780Z</time>
      </trkpt>
      <trkpt lat="48.5828" lon="7.74558">
        <ele>147</ele>
        <time>2021-08-07T08:49:29.950Z</time>
      </trkpt>
      <trkpt lat="48.58277" lon="7.74566">
        <ele>147</ele>
        <time>2021-08-07T08:49:34.170Z</time>
      </trkpt>
      <trkpt lat="48.58274" lon="7.74573">
        <ele>148</ele>
        <time>2021-08-07T08:49:38.346Z</time>
      </trkpt>
      <trkpt lat="48.5827" lon="7.74582">
        <ele>148</ele>
        <time>2021-08-07T08:49:43.127Z</time>
      </trkpt>
      <trkpt lat="48.58266" lon="7.74587">
        <ele>148</ele>
        <time>2021-08-07T08:49:47.363Z</time>
      </trkpt>
      <trkpt lat="48.58261" lon="7.74595">
        <ele>152</ele>
        <time>2021-08-07T08:49:52.245Z</time>
      </trkpt>
      <trkpt lat="48.58256" lon="7.74585">
        <ele>152</ele>
        <time>2021-08-07T08:49:56.469Z</time>
      </trkpt>
      <trkpt lat="48.58257" lon="7.74582">
        <ele>152</ele>
        <time>2021-08-07T08:50:05.121Z</time>
      </trkpt>
      <trkpt lat="48.58257" lon="7.7458">
        <ele>152</ele>
        <time>2021-08-07T08:50:09.164Z</time>
      </trkpt>
      <trkpt lat="48.58251" lon="7.74582">
        <ele>152</ele>
        <time>2021-08-07T08:50:13.385Z</time>
      </trkpt>
      <trkpt lat="48.58249" lon="7.74587">
        <ele>152</ele>
        <time>2021-08-07T08:50:17.586Z</time>
      </trkpt>
      <trkpt lat="48.58246" lon="7.74593">
        <ele>152</ele>
        <time>2021-08-07T08:50:21.809Z</time>
      </trkpt>
      <trkpt lat="48.58242" lon="7.74597">
        <ele>150</ele>
        <time>2021-08-07T08:50:26.069Z</time>
      </trkpt>
      <trkpt lat="48.58236" lon="7.74602">
        <ele>150</ele>
        <time>2021-08-07T08:50:31.316Z</time>
      </trkpt>
      <trkpt lat="48.58232" lon="7.74607">
        <ele>151</ele>
        <time>2021-08-07T08:50:35.487Z</time>
      </trkpt>
      <trkpt lat="48.58228" lon="7.74612">
        <ele>151</ele>
        <time>2021-08-07T08:50:39.638Z</time>
      </trkpt>
      <trkpt lat="48.58223" lon="7.74618">
        <ele>151</ele>
        <time>2021-08-07T08:50:43.848Z</time>
      </trkpt>
      <trkpt lat="48.58218" lon="7.74624">
        <ele>151</ele>
        <time>2021-08-07T08:50:48.008Z</time>
      </trkpt>
      <trkpt lat="48.58214" lon="7.74627">
        <ele>150</ele>
        <time>2021-08-07T08:50:52.164Z</time>
      </trkpt>
      <trkpt lat="48.58208" lon="7.74631">
        <ele>152</ele>
        <time>2021-08-07T08:50:58.383Z</time>
      </trkpt>
      <trkpt lat="48.58202" lon="7.74633">
        <ele>152</ele>
        <time>2021-08-07T08:51:04.609Z</time>
      </trkpt>
      <trkpt lat="48.58197" lon="7.74637">
        <ele>152</ele>
        <time>2021-08-07T08:51:10.849Z</time>
      </trkpt>
      <trkpt lat="48.58191" lon="7.74638">
        <ele>152</ele>
        <time>2021-08-07T08:51:17.070Z</time>
      </trkpt>
      <trkpt lat="48.58185" lon="7.74639">
        <ele>152</ele>
        <time>2021-08-07T08:51:23.306Z</time>
      </trkpt>
      <trkpt lat="48.58184" lon="7.74639">
        <ele>152</ele>
        <time>2021-08-07T08:51:27.494Z</time>
      </trkpt>
      <trkpt lat="48.5818" lon="7.74637">
        <ele>151</ele>
        <time>2021-08-07T08:51:32.236Z</time>
      </trkpt>
      <trkpt lat="48.58175" lon="7.74642">
        <ele>151</ele>
        <time>2021-08-07T08:51:36.409Z</time>
      </trkpt>
      <trkpt lat="48.58169" lon="7.74642">
        <ele>151</ele>
        <time>2021-08-07T08:51:40.624Z</time>
      </trkpt>
      <trkpt lat="48.58164" lon="7.74644">
        <ele>151</ele>
        <time>2021-08-07T08:51:44.845Z</time>
      </trkpt>
      <trkpt lat="48.5816" lon="7.74644">
        <ele>151</ele>
        <time>2021-08-07T08:51:49.019Z</time>
      </trkpt>
      <trkpt lat="48.58155" lon="7.74647">
        <ele>151</ele>
        <time>2021-08-07T08:51:54.413Z</time>
      </trkpt>
      <trkpt lat="48.5815" lon="7.74647">
        <ele>152</ele>
        <time>2021-08-07T08:51:58.586Z</time>
      </trkpt>
      <trkpt lat="48.58146" lon="7.74649">
        <ele>152</ele>
        <time>2021-08-07T08:52:02.733Z</time>
      </trkpt>
      <trkpt lat="48.58143" lon="7.74652">
        <ele>152</ele>
        <time>2021-08-07T08:52:06.861Z</time>
      </trkpt>
      <trkpt lat="48.5814" lon="7.74654">
        <ele>151</ele>
        <time>2021-08-07T08:52:11.062Z</time>
      </trkpt>
      <trkpt lat="48.58135" lon="7.74654">
        <ele>151</ele>
        <time>2021-08-07T08:52:16.268Z</time>
      </trkpt>
      <trkpt lat="48.58128" lon="7.74652">
        <ele>152</ele>
        <time>2021-08-07T08:52:22.516Z</time>
      </trkpt>
      <trkpt lat="48.58124" lon="7.7465">
        <ele>153</ele>
        <time>2021-08-07T08:52:28.752Z</time>
      </trkpt>
      <trkpt lat="48.58119" lon="7.74651">
        <ele>153</ele>
        <time>2021-08-07T08:52:34.963Z</time>
      </trkpt>
      <trkpt lat="48.58113" lon="7.74654">
        <ele>152</ele>
        <time>2021-08-07T08:52:39.137Z</time>
      </trkpt>
      <trkpt lat="48.58109" lon="7.74658">
        <ele>152</ele>
        <time>2021-08-07T08:52:43.366Z</time>
      </trkpt>
      <trkpt lat="48.58106" lon="7.7466">
        <ele>152</ele>
        <time>2021-08-07T08:52:47.592Z</time>
      </trkpt>
      <trkpt lat="48.58103" lon="7.74662">
        <ele>152</ele>
        <time>2021-08-07T08:52:52.127Z</time>
      </trkpt>
      <trkpt lat="48.58099" lon="7.74665">
        <ele>152</ele>
        <time>2021-08-07T08:52:57.122Z</time>
      </trkpt>
      <trkpt lat="48.58096" lon="7.74667">
        <ele>151</ele>
        <time>2021-08-07T08:53:01.123Z</time>
      </trkpt>
      <trkpt lat="48.58093" lon="7.74672">
        <ele>151</ele>
        <time>2021-08-07T08:53:06.123Z</time>
      </trkpt>
      <trkpt lat="48.5809" lon="7.74677">
        <ele>151</ele>
        <time>2021-08-07T08:53:11.125Z</time>
      </trkpt>
      <trkpt lat="48.5809" lon="7.74682">
        <ele>152</ele>
        <time>2021-08-07T08:53:15.117Z</time>
      </trkpt>
      <trkpt lat="48.58087" lon="7.74689">
        <ele>152</ele>
        <time>2021-08-07T08:53:20.116Z</time>
      </trkpt>
      <trkpt lat="48.58083" lon="7.74694">
        <ele>152</ele>
        <time>2021-08-07T08:53:24.119Z</time>
      </trkpt>
      <trkpt lat="48.58079" lon="7.74699">
        <ele>152</ele>
        <time>2021-08-07T08:53:29.119Z</time>
      </trkpt>
      <trkpt lat="48.58075" lon="7.747">
        <ele>152</ele>
        <time>2021-08-07T08:53:33.238Z</time>
      </trkpt>
      <trkpt lat="48.58067" lon="7.74697">
        <ele>150</ele>
        <time>2021-08-07T08:53:38.252Z</time>
      </trkpt>
      <trkpt lat="48.58061" lon="7.74689">
        <ele>150</ele>
        <time>2021-08-07T08:53:42.791Z</time>
      </trkpt>
      <trkpt lat="48.58056" lon="7.74682">
        <ele>150</ele>
        <time>2021-08-07T08:53:47.009Z</time>
      </trkpt>
      <trkpt lat="48.58052" lon="7.74677">
        <ele>150</ele>
        <time>2021-08-07T08:53:51.199Z</time>
      </trkpt>
      <trkpt lat="48.58047" lon="7.74672">
        <ele>150</ele>
        <time>2021-08-07T08:53:55.354Z</time>
      </trkpt>
      <trkpt lat="48.58044" lon="7.74668">
        <ele>150</ele>
        <time>2021-08-07T08:53:59.537Z</time>
      </trkpt>
      <trkpt lat="48.58038" lon="7.74662">
        <ele>148</ele>
        <time>2021-08-07T08:54:04.221Z</time>
      </trkpt>
      <trkpt lat="48.58034" lon="7.74655">
        <ele>148</ele>
        <time>2021-08-07T08:54:08.471Z</time>
      </trkpt>
      <trkpt lat="48.58029" lon="7.7465">
        <ele>147</ele>
        <time>2021-08-07T08:54:12.679Z</time>
      </trkpt>
      <trkpt lat="48.58026" lon="7.74647">
        <ele>147</ele>
        <time>2021-08-07T08:54:16.908Z</time>
      </trkpt>
      <trkpt lat="48.58024" lon="7.74642">
        <ele>147</ele>
        <time>2021-08-07T08:54:21.144Z</time>
      </trkpt>
      <trkpt lat="48.58021" lon="7.74636">
        <ele>147</ele>
        <time>2021-08-07T08:54:25.341Z</time>
      </trkpt>
      <trkpt lat="48.58017" lon="7.74632">
        <ele>147</ele>
        <time>2021-08-07T08:54:29.526Z</time>
      </trkpt>
      <trkpt lat="48.58015" lon="7.74626">
        <ele>147</ele>
        <time>2021-08-07T08:54:33.709Z</time>
      </trkpt>
      <trkpt lat="48.58013" lon="7.74621">
        <ele>146</ele>
        <time>2021-08-07T08:54:37.864Z</time>
      </trkpt>
      <trkpt lat="48.5801" lon="7.74616">
        <ele>146</ele>
        <time>2021-08-07T08:54:42.069Z</time>
      </trkpt>
      <trkpt lat="48.58008" lon="7.74609">
        <ele>146</ele>
        <time>2021-08-07T08:54:46.294Z</time>
      </trkpt>
      <trkpt lat="48.58008" lon="7.74604">
        <ele>146</ele>
        <time>2021-08-07T08:54:50.450Z</time>
      </trkpt>
      <trkpt lat="48.58008" lon="7.74599">
        <ele>146</ele>
        <time>2021-08-07T08:54:54.607Z</time>
      </trkpt>
      <trkpt lat="48.58008" lon="7.74594">
        <ele>147</ele>
        <time>2021-08-07T08:54:58.810Z</time>
      </trkpt>
      <trkpt lat="48.5801" lon="7.7459">
        <ele>147</ele>
        <time>2021-08-07T08:55:02.967Z</time>
      </trkpt>
      <trkpt lat="48.5801" lon="7.74584">
        <ele>147</ele>
        <time>2021-08-07T08:55:07.151Z</time>
      </trkpt>
      <trkpt lat="48.5801" lon="7.74577">
        <ele>147</ele>
        <time>2021-08-07T08:55:13.381Z</time>
      </trkpt>
      <trkpt lat="48.5801" lon="7.74569">
        <ele>148</ele>
        <time>2021-08-07T08:55:19.627Z</time>
      </trkpt>
      <trkpt lat="48.58011" lon="7.74561">
        <ele>148</ele>
        <time>2021-08-07T08:55:25.890Z</time>
      </trkpt>
      <trkpt lat="48.58011" lon="7.74552">
        <ele>148</ele>
        <time>2021-08-07T08:55:32.158Z</time>
      </trkpt>
      <trkpt lat="48.58011" lon="7.74545">
        <ele>148</ele>
        <time>2021-08-07T08:55:36.344Z</time>
      </trkpt>
      <trkpt lat="48.58011" lon="7.74538">
        <ele>145</ele>
        <time>2021-08-07T08:55:40.884Z</time>
      </trkpt>
      <trkpt lat="48.58008" lon="7.74532">
        <ele>145</ele>
        <time>2021-08-07T08:55:45.079Z</time>
      </trkpt>
      <trkpt lat="48.58006" lon="7.74525">
        <ele>145</ele>
        <time>2021-08-07T08:55:49.189Z</time>
      </trkpt>
      <trkpt lat="48.58005" lon="7.74518">
        <ele>145</ele>
        <time>2021-08-07T08:55:53.350Z</time>
      </trkpt>
      <trkpt lat="48.58005" lon="7.74511">
        <ele>143</ele>
        <time>2021-08-07T08:55:57.486Z</time>
      </trkpt>
      <trkpt lat="48.58005" lon="7.74504">
        <ele>143</ele>
        <time>2021-08-07T08:56:01.636Z</time>
      </trkpt>
      <trkpt lat="48.58006" lon="7.74497">
        <ele>143</ele>
        <time>2021-08-07T08:56:05.821Z</time>
      </trkpt>
      <trkpt lat="48.58006" lon="7.7449">
        <ele>143</ele>
        <time>2021-08-07T08:56:09.916Z</time>
      </trkpt>
      <trkpt lat="48.58006" lon="7.74485">
        <ele>142</ele>
        <time>2021-08-07T08:56:14.062Z</time>
      </trkpt>
      <trkpt lat="48.58007" lon="7.74477">
        <ele>142</ele>
        <time>2021-08-07T08:56:19.178Z</time>
      </trkpt>
      <trkpt lat="48.58007" lon="7.7447">
        <ele>142</ele>
        <time>2021-08-07T08:56:24.350Z</time>
      </trkpt>
      <trkpt lat="48.58008" lon="7.74462">
        <ele>142</ele>
        <time>2021-08-07T08:56:29.504Z</time>
      </trkpt>
      <trkpt lat="48.58011" lon="7.74455">
        <ele>143</ele>
        <time>2021-08-07T08:56:34.623Z</time>
      </trkpt>
      <trkpt lat="48.58014" lon="7.7445">
        <ele>142</ele>
        <time>2021-08-07T08:56:39.830Z</time>
      </trkpt>
      <trkpt lat="48.58017" lon="7.74446">
        <ele>142</ele>
        <time>2021-08-07T08:56:44.995Z</time>
      </trkpt>
      <trkpt lat="48.58019" lon="7.74441">
        <ele>142</ele>
        <time>2021-08-07T08:56:50.153Z</time>
      </trkpt>
      <trkpt lat="48.58022" lon="7.74432">
        <ele>142</ele>
        <time>2021-08-07T08:56:56.355Z</time>
      </trkpt>
      <trkpt lat="48.58025" lon="7.74423">
        <ele>142</ele>
        <time>2021-08-07T08:57:02.594Z</time>
      </trkpt>
      <trkpt lat="48.58028" lon="7.74413">
        <ele>142</ele>
        <time>2021-08-07T08:57:08.844Z</time>
      </trkpt>
      <trkpt lat="48.58032" lon="7.74405">
        <ele>142</ele>
        <time>2021-08-07T08:57:15.068Z</time>
      </trkpt>
      <trkpt lat="48.58037" lon="7.74396">
        <ele>140</ele>
        <time>2021-08-07T08:57:21.212Z</time>
      </trkpt>
      <trkpt lat="48.58041" lon="7.74389">
        <ele>140</ele>
        <time>2021-08-07T08:57:27.383Z</time>
      </trkpt>
      <trkpt lat="48.58045" lon="7.74381">
        <ele>144</ele>
        <time>2021-08-07T08:57:33.614Z</time>
      </trkpt>
      <trkpt lat="48.58047" lon="7.74375">
        <ele>144</ele>
        <time>2021-08-07T08:57:38.813Z</time>
      </trkpt>
      <trkpt lat="48.58049" lon="7.74375">
        <ele>143</ele>
        <time>2021-08-07T08:57:43.168Z</time>
      </trkpt>
      <trkpt lat="48.58056" lon="7.7436">
        <ele>143</ele>
        <time>2021-08-07T08:58:11.125Z</time>
      </trkpt>
      <trkpt lat="48.58058" lon="7.7436">
        <ele>143</ele>
        <time>2021-08-07T08:58:16.174Z</time>
      </trkpt>
      <trkpt lat="48.58059" lon="7.74353">
        <ele>143</ele>
        <time>2021-08-07T08:58:20.394Z</time>
      </trkpt>
      <trkpt lat="48.58061" lon="7.74348">
        <ele>143</ele>
        <time>2021-08-07T08:58:24.607Z</time>
      </trkpt>
      <trkpt lat="48.58063" lon="7.74345">
        <ele>143</ele>
        <time>2021-08-07T08:58:28.843Z</time>
      </trkpt>
      <trkpt lat="48.58066" lon="7.74342">
        <ele>143</ele>
        <time>2021-08-07T08:58:33.069Z</time>
      </trkpt>
      <trkpt lat="48.58069" lon="7.74339">
        <ele>143</ele>
        <time>2021-08-07T08:58:38.333Z</time>
      </trkpt>
      <trkpt lat="48.58072" lon="7.74336">
        <ele>143</ele>
        <time>2021-08-07T08:58:42.509Z</time>
      </trkpt>
      <trkpt lat="48.58075" lon="7.74333">
        <ele>143</ele>
        <time>2021-08-07T08:58:46.704Z</time>
      </trkpt>
      <trkpt lat="48.58077" lon="7.7433">
        <ele>143</ele>
        <time>2021-08-07T08:58:50.885Z</time>
      </trkpt>
      <trkpt lat="48.58079" lon="7.74327">
        <ele>143</ele>
        <time>2021-08-07T08:58:55.077Z</time>
      </trkpt>
      <trkpt lat="48.58082" lon="7.74324">
        <ele>143</ele>
        <time>2021-08-07T08:58:59.274Z</time>
      </trkpt>
      <trkpt lat="48.58086" lon="7.74323">
        <ele>143</ele>
        <time>2021-08-07T08:59:03.409Z</time>
      </trkpt>
      <trkpt lat="48.5809" lon="7.74323">
        <ele>143</ele>
        <time>2021-08-07T08:59:07.612Z</time>
      </trkpt>
      <trkpt lat="48.58093" lon="7.7432">
        <ele>143</ele>
        <time>2021-08-07T08:59:11.809Z</time>
      </trkpt>
      <trkpt lat="48.58095" lon="7.74317">
        <ele>142</ele>
        <time>2021-08-07T08:59:15.968Z</time>
      </trkpt>
      <trkpt lat="48.58099" lon="7.74314">
        <ele>144</ele>
        <time>2021-08-07T08:59:20.153Z</time>
      </trkpt>
      <trkpt lat="48.58103" lon="7.7431">
        <ele>144</ele>
        <time>2021-08-07T08:59:26.365Z</time>
      </trkpt>
      <trkpt lat="48.58103" lon="7.74313">
        <ele>144</ele>
        <time>2021-08-07T08:59:31.124Z</time>
      </trkpt>
      <trkpt lat="48.58104" lon="7.74317">
        <ele>144</ele>
        <time>2021-08-07T08:59:35.330Z</time>
      </trkpt>
      <trkpt lat="48.58107" lon="7.74318">
        <ele>144</ele>
        <time>2021-08-07T08:59:39.549Z</time>
      </trkpt>
      <trkpt lat="48.58109" lon="7.74322">
        <ele>145</ele>
        <time>2021-08-07T08:59:43.745Z</time>
      </trkpt>
      <trkpt lat="48.58113" lon="7.74325">
        <ele>145</ele>
        <time>2021-08-07T08:59:52.171Z</time>
      </trkpt>
      <trkpt lat="48.58111" lon="7.74327">
        <ele>145</ele>
        <time>2021-08-07T08:59:57.139Z</time>
      </trkpt>
      <trkpt lat="48.5811" lon="7.74327">
        <ele>145</ele>
        <time>2021-08-07T09:00:02.111Z</time>
      </trkpt>
      <trkpt lat="48.58106" lon="7.74326">
        <ele>145</ele>
        <time>2021-08-07T09:00:07.120Z</time>
      </trkpt>
      <trkpt lat="48.58099" lon="7.74314">
        <ele>144</ele>
        <time>2021-08-07T09:00:20.118Z</time>
      </trkpt>
      <trkpt lat="48.58095" lon="7.74296">
        <ele>142</ele>
        <time>2021-08-07T09:00:24.370Z</time>
      </trkpt>
      <trkpt lat="48.58098" lon="7.74288">
        <ele>142</ele>
        <time>2021-08-07T09:00:28.608Z</time>
      </trkpt>
      <trkpt lat="48.58107" lon="7.74288">
        <ele>142</ele>
        <time>2021-08-07T09:00:32.841Z</time>
      </trkpt>
      <trkpt lat="48.58116" lon="7.74288">
        <ele>142</ele>
        <time>2021-08-07T09:00:37.055Z</time>
      </trkpt>
      <trkpt lat="48.5812" lon="7.74281">
        <ele>142</ele>
        <time>2021-08-07T09:00:41.200Z</time>
      </trkpt>
      <trkpt lat="48.58123" lon="7.7427">
        <ele>142</ele>
        <time>2021-08-07T09:00:45.370Z</time>
      </trkpt>
      <trkpt lat="48.58127" lon="7.74266">
        <ele>147</ele>
        <time>2021-08-07T09:00:49.555Z</time>
      </trkpt>
      <trkpt lat="48.58128" lon="7.7426">
        <ele>144</ele>
        <time>2021-08-07T09:00:53.748Z</time>
      </trkpt>
      <trkpt lat="48.58132" lon="7.74253">
        <ele>144</ele>
        <time>2021-08-07T09:00:57.908Z</time>
      </trkpt>
      <trkpt lat="48.58132" lon="7.74248">
        <ele>144</ele>
        <time>2021-08-07T09:01:02.105Z</time>
      </trkpt>
      <trkpt lat="48.58134" lon="7.74237">
        <ele>144</ele>
        <time>2021-08-07T09:01:08.518Z</time>
      </trkpt>
      <trkpt lat="48.5813" lon="7.74227">
        <ele>141</ele>
        <time>2021-08-07T09:01:14.746Z</time>
      </trkpt>
      <trkpt lat="48.58126" lon="7.74222">
        <ele>141</ele>
        <time>2021-08-07T09:03:44.185Z</time>
      </trkpt>
      <trkpt lat="48.58125" lon="7.74226">
        <ele>139</ele>
        <time>2021-08-07T09:03:48.371Z</time>
      </trkpt>
      <trkpt lat="48.58122" lon="7.7423">
        <ele>139</ele>
        <time>2021-08-07T09:03:53.285Z</time>
      </trkpt>
      <trkpt lat="48.58118" lon="7.7423">
        <ele>139</ele>
        <time>2021-08-07T09:03:57.483Z</time>
      </trkpt>
      <trkpt lat="48.58115" lon="7.74232">
        <ele>139</ele>
        <time>2021-08-07T09:04:01.724Z</time>
      </trkpt>
      <trkpt lat="48.58112" lon="7.74237">
        <ele>141</ele>
        <time>2021-08-07T09:04:05.910Z</time>
      </trkpt>
      <trkpt lat="48.58107" lon="7.74242">
        <ele>141</ele>
        <time>2021-08-07T09:04:11.152Z</time>
      </trkpt>
      <trkpt lat="48.58103" lon="7.74245">
        <ele>141</ele>
        <time>2021-08-07T09:04:15.332Z</time>
      </trkpt>
      <trkpt lat="48.581" lon="7.7425">
        <ele>141</ele>
        <time>2021-08-07T09:04:19.501Z</time>
      </trkpt>
      <trkpt lat="48.58094" lon="7.74246">
        <ele>139</ele>
        <time>2021-08-07T09:04:45.117Z</time>
      </trkpt>
      <trkpt lat="48.58094" lon="7.74246">
        <ele>139</ele>
        <time>2021-08-07T09:04:50.117Z</time>
      </trkpt>
      <trkpt lat="48.5809" lon="7.7425">
        <ele>139</ele>
        <time>2021-08-07T09:04:54.230Z</time>
      </trkpt>
      <trkpt lat="48.58085" lon="7.74253">
        <ele>139</ele>
        <time>2021-08-07T09:04:58.432Z</time>
      </trkpt>
      <trkpt lat="48.58081" lon="7.74256">
        <ele>139</ele>
        <time>2021-08-07T09:05:02.626Z</time>
      </trkpt>
      <trkpt lat="48.58079" lon="7.74261">
        <ele>139</ele>
        <time>2021-08-07T09:05:06.835Z</time>
      </trkpt>
      <trkpt lat="48.58075" lon="7.74266">
        <ele>141</ele>
        <time>2021-08-07T09:05:11.074Z</time>
      </trkpt>
      <trkpt lat="48.58071" lon="7.74271">
        <ele>141</ele>
        <time>2021-08-07T09:05:16.288Z</time>
      </trkpt>
      <trkpt lat="48.58067" lon="7.74276">
        <ele>141</ele>
        <time>2021-08-07T09:05:20.391Z</time>
      </trkpt>
      <trkpt lat="48.58064" lon="7.7428">
        <ele>141</ele>
        <time>2021-08-07T09:05:24.580Z</time>
      </trkpt>
      <trkpt lat="48.58061" lon="7.74284">
        <ele>141</ele>
        <time>2021-08-07T09:05:28.783Z</time>
      </trkpt>
      <trkpt lat="48.58058" lon="7.74287">
        <ele>141</ele>
        <time>2021-08-07T09:05:32.972Z</time>
      </trkpt>
      <trkpt lat="48.58055" lon="7.7429">
        <ele>141</ele>
        <time>2021-08-07T09:05:38.320Z</time>
      </trkpt>
      <trkpt lat="48.58055" lon="7.7429">
        <ele>141</ele>
        <time>2021-08-07T09:05:43.114Z</time>
      </trkpt>
      <trkpt lat="48.58054" lon="7.74292">
        <ele>142</ele>
        <time>2021-08-07T09:05:47.118Z</time>
      </trkpt>
      <trkpt lat="48.58051" lon="7.74293">
        <ele>142</ele>
        <time>2021-08-07T09:05:51.301Z</time>
      </trkpt>
      <trkpt lat="48.58046" lon="7.74297">
        <ele>142</ele>
        <time>2021-08-07T09:05:56.283Z</time>
      </trkpt>
      <trkpt lat="48.58043" lon="7.74299">
        <ele>142</ele>
        <time>2021-08-07T09:06:00.499Z</time>
      </trkpt>
      <trkpt lat="48.5804" lon="7.74304">
        <ele>140</ele>
        <time>2021-08-07T09:06:04.700Z</time>
      </trkpt>
      <trkpt lat="48.58036" lon="7.74306">
        <ele>140</ele>
        <time>2021-08-07T09:06:08.897Z</time>
      </trkpt>
      <trkpt lat="48.58031" lon="7.74309">
        <ele>140</ele>
        <time>2021-08-07T09:06:14.367Z</time>
      </trkpt>
      <trkpt lat="48.58028" lon="7.74312">
        <ele>140</ele>
        <time>2021-08-07T09:06:18.505Z</time>
      </trkpt>
      <trkpt lat="48.58026" lon="7.74314">
        <ele>140</ele>
        <time>2021-08-07T09:06:22.664Z</time>
      </trkpt>
      <trkpt lat="48.58024" lon="7.74316">
        <ele>140</ele>
        <time>2021-08-07T09:06:27.191Z</time>
      </trkpt>
      <trkpt lat="48.58021" lon="7.7432">
        <ele>141</ele>
        <time>2021-08-07T09:06:31.330Z</time>
      </trkpt>
      <trkpt lat="48.58016" lon="7.74322">
        <ele>141</ele>
        <time>2021-08-07T09:06:36.276Z</time>
      </trkpt>
      <trkpt lat="48.58014" lon="7.74327">
        <ele>141</ele>
        <time>2021-08-07T09:06:40.478Z</time>
      </trkpt>
      <trkpt lat="48.58013" lon="7.74334">
        <ele>139</ele>
        <time>2021-08-07T09:06:44.664Z</time>
      </trkpt>
      <trkpt lat="48.58009" lon="7.74337">
        <ele>139</ele>
        <time>2021-08-07T09:06:48.859Z</time>
      </trkpt>
      <trkpt lat="48.58004" lon="7.7434">
        <ele>139</ele>
        <time>2021-08-07T09:06:53.065Z</time>
      </trkpt>
      <trkpt lat="48.58" lon="7.74343">
        <ele>139</ele>
        <time>2021-08-07T09:06:58.308Z</time>
      </trkpt>
      <trkpt lat="48.57996" lon="7.74347">
        <ele>139</ele>
        <time>2021-08-07T09:07:02.417Z</time>
      </trkpt>
      <trkpt lat="48.57992" lon="7.7435">
        <ele>139</ele>
        <time>2021-08-07T09:07:06.609Z</time>
      </trkpt>
      <trkpt lat="48.57989" lon="7.74354">
        <ele>139</ele>
        <time>2021-08-07T09:07:10.794Z</time>
      </trkpt>
      <trkpt lat="48.57986" lon="7.74358">
        <ele>145</ele>
        <time>2021-08-07T09:07:14.914Z</time>
      </trkpt>
      <trkpt lat="48.57983" lon="7.74363">
        <ele>145</ele>
        <time>2021-08-07T09:07:19.072Z</time>
      </trkpt>
      <trkpt lat="48.57978" lon="7.74368">
        <ele>145</ele>
        <time>2021-08-07T09:07:23.244Z</time>
      </trkpt>
      <trkpt lat="48.57975" lon="7.74372">
        <ele>145</ele>
        <time>2021-08-07T09:07:27.488Z</time>
      </trkpt>
      <trkpt lat="48.57971" lon="7.74375">
        <ele>147</ele>
        <time>2021-08-07T09:07:31.654Z</time>
      </trkpt>
      <trkpt lat="48.57968" lon="7.74379">
        <ele>147</ele>
        <time>2021-08-07T09:07:35.840Z</time>
      </trkpt>
      <trkpt lat="48.57964" lon="7.74383">
        <ele>147</ele>
        <time>2021-08-07T09:07:40.011Z</time>
      </trkpt>
      <trkpt lat="48.57961" lon="7.74388">
        <ele>147</ele>
        <time>2021-08-07T09:07:44.153Z</time>
      </trkpt>
      <trkpt lat="48.57957" lon="7.74398">
        <ele>149</ele>
        <time>2021-08-07T09:07:48.512Z</time>
      </trkpt>
      <trkpt lat="48.57954" lon="7.74404">
        <ele>147</ele>
        <time>2021-08-07T09:07:52.800Z</time>
      </trkpt>
      <trkpt lat="48.57951" lon="7.74409">
        <ele>147</ele>
        <time>2021-08-07T09:07:57.078Z</time>
      </trkpt>
      <trkpt lat="48.57949" lon="7.74415">
        <ele>147</ele>
        <time>2021-08-07T09:08:01.338Z</time>
      </trkpt>
      <trkpt lat="48.57945" lon="7.74421">
        <ele>147</ele>
        <time>2021-08-07T09:08:07.263Z</time>
      </trkpt>
      <trkpt lat="48.57942" lon="7.74427">
        <ele>147</ele>
        <time>2021-08-07T09:08:11.407Z</time>
      </trkpt>
      <trkpt lat="48.5794" lon="7.74434">
        <ele>143</ele>
        <time>2021-08-07T09:08:15.589Z</time>
      </trkpt>
      <trkpt lat="48.57937" lon="7.7444">
        <ele>143</ele>
        <time>2021-08-07T09:08:19.748Z</time>
      </trkpt>
      <trkpt lat="48.57934" lon="7.74445">
        <ele>143</ele>
        <time>2021-08-07T09:08:23.949Z</time>
      </trkpt>
      <trkpt lat="48.57934" lon="7.74451">
        <ele>143</ele>
        <time>2021-08-07T09:08:28.148Z</time>
      </trkpt>
      <trkpt lat="48.5793" lon="7.74458">
        <ele>137</ele>
        <time>2021-08-07T09:08:34.377Z</time>
      </trkpt>
      <trkpt lat="48.57927" lon="7.74464">
        <ele>137</ele>
        <time>2021-08-07T09:08:40.617Z</time>
      </trkpt>
      <trkpt lat="48.57922" lon="7.7447">
        <ele>137</ele>
        <time>2021-08-07T09:08:46.866Z</time>
      </trkpt>
      <trkpt lat="48.57919" lon="7.74477">
        <ele>137</ele>
        <time>2021-08-07T09:08:53.148Z</time>
      </trkpt>
      <trkpt lat="48.57918" lon="7.74483">
        <ele>137</ele>
        <time>2021-08-07T09:08:57.350Z</time>
      </trkpt>
      <trkpt lat="48.57917" lon="7.74487">
        <ele>136</ele>
        <time>2021-08-07T09:09:01.540Z</time>
      </trkpt>
      <trkpt lat="48.57917" lon="7.74488">
        <ele>136</ele>
        <time>2021-08-07T09:09:06.131Z</time>
      </trkpt>
      <trkpt lat="48.57919" lon="7.74488">
        <ele>136</ele>
        <time>2021-08-07T09:09:10.137Z</time>
      </trkpt>
      <trkpt lat="48.57923" lon="7.74486">
        <ele>137</ele>
        <time>2021-08-07T09:09:14.342Z</time>
      </trkpt>
      <trkpt lat="48.57924" lon="7.74482">
        <ele>137</ele>
        <time>2021-08-07T09:09:18.577Z</time>
      </trkpt>
      <trkpt lat="48.57926" lon="7.74477">
        <ele>137</ele>
        <time>2021-08-07T09:09:22.805Z</time>
      </trkpt>
      <trkpt lat="48.57929" lon="7.74472">
        <ele>137</ele>
        <time>2021-08-07T09:09:27.006Z</time>
      </trkpt>
      <trkpt lat="48.57931" lon="7.74467">
        <ele>140</ele>
        <time>2021-08-07T09:09:31.212Z</time>
      </trkpt>
      <trkpt lat="48.57933" lon="7.74461">
        <ele>140</ele>
        <time>2021-08-07T09:09:35.388Z</time>
      </trkpt>
      <trkpt lat="48.57934" lon="7.74453">
        <ele>143</ele>
        <time>2021-08-07T09:09:39.593Z</time>
      </trkpt>
      <trkpt lat="48.5793" lon="7.74455">
        <ele>140</ele>
        <time>2021-08-07T09:09:43.789Z</time>
      </trkpt>
      <trkpt lat="48.57926" lon="7.7446">
        <ele>137</ele>
        <time>2021-08-07T09:09:47.907Z</time>
      </trkpt>
      <trkpt lat="48.57923" lon="7.74467">
        <ele>137</ele>
        <time>2021-08-07T09:09:52.076Z</time>
      </trkpt>
      <trkpt lat="48.57922" lon="7.74474">
        <ele>137</ele>
        <time>2021-08-07T09:09:56.256Z</time>
      </trkpt>
      <trkpt lat="48.57919" lon="7.74478">
        <ele>137</ele>
        <time>2021-08-07T09:10:00.382Z</time>
      </trkpt>
      <trkpt lat="48.57915" lon="7.74481">
        <ele>137</ele>
        <time>2021-08-07T09:10:04.522Z</time>
      </trkpt>
      <trkpt lat="48.57912" lon="7.74486">
        <ele>137</ele>
        <time>2021-08-07T09:10:08.638Z</time>
      </trkpt>
      <trkpt lat="48.57911" lon="7.7449">
        <ele>136</ele>
        <time>2021-08-07T09:10:12.833Z</time>
      </trkpt>
      <trkpt lat="48.57908" lon="7.74496">
        <ele>136</ele>
        <time>2021-08-07T09:10:17.250Z</time>
      </trkpt>
      <trkpt lat="48.57906" lon="7.74501">
        <ele>136</ele>
        <time>2021-08-07T09:10:21.385Z</time>
      </trkpt>
      <trkpt lat="48.57904" lon="7.74504">
        <ele>136</ele>
        <time>2021-08-07T09:10:25.597Z</time>
      </trkpt>
      <trkpt lat="48.57903" lon="7.74509">
        <ele>137</ele>
        <time>2021-08-07T09:10:29.760Z</time>
      </trkpt>
      <trkpt lat="48.579" lon="7.74513">
        <ele>137</ele>
        <time>2021-08-07T09:10:33.934Z</time>
      </trkpt>
      <trkpt lat="48.57897" lon="7.74518">
        <ele>137</ele>
        <time>2021-08-07T09:10:38.137Z</time>
      </trkpt>
      <trkpt lat="48.57895" lon="7.74527">
        <ele>137</ele>
        <time>2021-08-07T09:10:44.341Z</time>
      </trkpt>
      <trkpt lat="48.57894" lon="7.74536">
        <ele>137</ele>
        <time>2021-08-07T09:10:50.580Z</time>
      </trkpt>
      <trkpt lat="48.57892" lon="7.74546">
        <ele>137</ele>
        <time>2021-08-07T09:10:56.766Z</time>
      </trkpt>
      <trkpt lat="48.5789" lon="7.74555">
        <ele>137</ele>
        <time>2021-08-07T09:11:03.011Z</time>
      </trkpt>
      <trkpt lat="48.57888" lon="7.74569">
        <ele>137</ele>
        <time>2021-08-07T09:11:08.339Z</time>
      </trkpt>
      <trkpt lat="48.57887" lon="7.74576">
        <ele>138</ele>
        <time>2021-08-07T09:11:12.523Z</time>
      </trkpt>
      <trkpt lat="48.57887" lon="7.74582">
        <ele>138</ele>
        <time>2021-08-07T09:11:16.749Z</time>
      </trkpt>
      <trkpt lat="48.57885" lon="7.74589">
        <ele>138</ele>
        <time>2021-08-07T09:11:20.985Z</time>
      </trkpt>
      <trkpt lat="48.57884" lon="7.74598">
        <ele>141</ele>
        <time>2021-08-07T09:11:26.174Z</time>
      </trkpt>
      <trkpt lat="48.57882" lon="7.7461">
        <ele>141</ele>
        <time>2021-08-07T09:11:32.438Z</time>
      </trkpt>
      <trkpt lat="48.57881" lon="7.74621">
        <ele>141</ele>
        <time>2021-08-07T09:11:38.694Z</time>
      </trkpt>
      <trkpt lat="48.5788" lon="7.74631">
        <ele>142</ele>
        <time>2021-08-07T09:11:44.950Z</time>
      </trkpt>
      <trkpt lat="48.57878" lon="7.74645">
        <ele>142</ele>
        <time>2021-08-07T09:11:52.177Z</time>
      </trkpt>
      <trkpt lat="48.57877" lon="7.74651">
        <ele>142</ele>
        <time>2021-08-07T09:11:56.345Z</time>
      </trkpt>
      <trkpt lat="48.57875" lon="7.74657">
        <ele>142</ele>
        <time>2021-08-07T09:12:00.506Z</time>
      </trkpt>
      <trkpt lat="48.57875" lon="7.74664">
        <ele>145</ele>
        <time>2021-08-07T09:12:04.627Z</time>
      </trkpt>
      <trkpt lat="48.57874" lon="7.74671">
        <ele>145</ele>
        <time>2021-08-07T09:12:08.793Z</time>
      </trkpt>
      <trkpt lat="48.57872" lon="7.74678">
        <ele>145</ele>
        <time>2021-08-07T09:12:12.892Z</time>
      </trkpt>
      <trkpt lat="48.57872" lon="7.74685">
        <ele>145</ele>
        <time>2021-08-07T09:12:17.066Z</time>
      </trkpt>
      <trkpt lat="48.57871" lon="7.74694">
        <ele>145</ele>
        <time>2021-08-07T09:12:21.191Z</time>
      </trkpt>
      <trkpt lat="48.5787" lon="7.74702">
        <ele>145</ele>
        <time>2021-08-07T09:12:25.345Z</time>
      </trkpt>
      <trkpt lat="48.5787" lon="7.74709">
        <ele>145</ele>
        <time>2021-08-07T09:12:29.484Z</time>
      </trkpt>
      <trkpt lat="48.5787" lon="7.74716">
        <ele>145</ele>
        <time>2021-08-07T09:12:33.614Z</time>
      </trkpt>
      <trkpt lat="48.5787" lon="7.74721">
        <ele>145</ele>
        <time>2021-08-07T09:12:37.759Z</time>
      </trkpt>
      <trkpt lat="48.57869" lon="7.74727">
        <ele>145</ele>
        <time>2021-08-07T09:12:41.889Z</time>
      </trkpt>
      <trkpt lat="48.57869" lon="7.74734">
        <ele>145</ele>
        <time>2021-08-07T09:12:46.076Z</time>
      </trkpt>
      <trkpt lat="48.5787" lon="7.74743">
        <ele>145</ele>
        <time>2021-08-07T09:12:50.183Z</time>
      </trkpt>
      <trkpt lat="48.5787" lon="7.74753">
        <ele>145</ele>
        <time>2021-08-07T09:12:54.343Z</time>
      </trkpt>
      <trkpt lat="48.57871" lon="7.7476">
        <ele>145</ele>
        <time>2021-08-07T09:12:58.535Z</time>
      </trkpt>
      <trkpt lat="48.57871" lon="7.74769">
        <ele>143</ele>
        <time>2021-08-07T09:13:02.633Z</time>
      </trkpt>
      <trkpt lat="48.57872" lon="7.74776">
        <ele>143</ele>
        <time>2021-08-07T09:13:06.806Z</time>
      </trkpt>
      <trkpt lat="48.57874" lon="7.74784">
        <ele>143</ele>
        <time>2021-08-07T09:13:10.908Z</time>
      </trkpt>
      <trkpt lat="48.57875" lon="7.74791">
        <ele>143</ele>
        <time>2021-08-07T09:13:15.077Z</time>
      </trkpt>
      <trkpt lat="48.57876" lon="7.748">
        <ele>142</ele>
        <time>2021-08-07T09:13:20.174Z</time>
      </trkpt>
      <trkpt lat="48.57878" lon="7.74809">
        <ele>142</ele>
        <time>2021-08-07T09:13:25.343Z</time>
      </trkpt>
      <trkpt lat="48.5788" lon="7.74818">
        <ele>142</ele>
        <time>2021-08-07T09:13:30.512Z</time>
      </trkpt>
      <trkpt lat="48.5788" lon="7.74826">
        <ele>139</ele>
        <time>2021-08-07T09:13:35.648Z</time>
      </trkpt>
      <trkpt lat="48.5788" lon="7.74835">
        <ele>139</ele>
        <time>2021-08-07T09:13:40.849Z</time>
      </trkpt>
      <trkpt lat="48.57881" lon="7.74844">
        <ele>139</ele>
        <time>2021-08-07T09:13:46.057Z</time>
      </trkpt>
      <trkpt lat="48.57883" lon="7.74852">
        <ele>137</ele>
        <time>2021-08-07T09:13:50.174Z</time>
      </trkpt>
      <trkpt lat="48.57885" lon="7.74868">
        <ele>137</ele>
        <time>2021-08-07T09:13:55.171Z</time>
      </trkpt>
      <trkpt lat="48.57887" lon="7.74872">
        <ele>137</ele>
        <time>2021-08-07T09:13:59.373Z</time>
      </trkpt>
      <trkpt lat="48.57894" lon="7.74875">
        <ele>137</ele>
        <time>2021-08-07T09:14:04.161Z</time>
      </trkpt>
      <trkpt lat="48.57895" lon="7.74879">
        <ele>138</ele>
        <time>2021-08-07T09:14:08.225Z</time>
      </trkpt>
      <trkpt lat="48.57893" lon="7.74882">
        <ele>138</ele>
        <time>2021-08-07T09:14:12.435Z</time>
      </trkpt>
      <trkpt lat="48.57894" lon="7.74889">
        <ele>138</ele>
        <time>2021-08-07T09:14:17.137Z</time>
      </trkpt>
      <trkpt lat="48.57897" lon="7.749">
        <ele>138</ele>
        <time>2021-08-07T09:14:31.116Z</time>
      </trkpt>
      <trkpt lat="48.57898" lon="7.74909">
        <ele>138</ele>
        <time>2021-08-07T09:14:35.354Z</time>
      </trkpt>
      <trkpt lat="48.57897" lon="7.74922">
        <ele>138</ele>
        <time>2021-08-07T09:14:40.357Z</time>
      </trkpt>
      <trkpt lat="48.57897" lon="7.74929">
        <ele>138</ele>
        <time>2021-08-07T09:14:44.623Z</time>
      </trkpt>
      <trkpt lat="48.57899" lon="7.74935">
        <ele>139</ele>
        <time>2021-08-07T09:14:48.812Z</time>
      </trkpt>
      <trkpt lat="48.57898" lon="7.74941">
        <ele>139</ele>
        <time>2021-08-07T09:14:52.999Z</time>
      </trkpt>
      <trkpt lat="48.57898" lon="7.74951">
        <ele>139</ele>
        <time>2021-08-07T09:14:58.293Z</time>
      </trkpt>
      <trkpt lat="48.57898" lon="7.74957">
        <ele>139</ele>
        <time>2021-08-07T09:15:02.501Z</time>
      </trkpt>
      <trkpt lat="48.57901" lon="7.74958">
        <ele>139</ele>
        <time>2021-08-07T09:15:06.691Z</time>
      </trkpt>
      <trkpt lat="48.57904" lon="7.74957">
        <ele>139</ele>
        <time>2021-08-07T09:15:20.119Z</time>
      </trkpt>
      <trkpt lat="48.57906" lon="7.74961">
        <ele>141</ele>
        <time>2021-08-07T09:15:24.345Z</time>
      </trkpt>
      <trkpt lat="48.57909" lon="7.74966">
        <ele>141</ele>
        <time>2021-08-07T09:15:28.557Z</time>
      </trkpt>
      <trkpt lat="48.57911" lon="7.74972">
        <ele>141</ele>
        <time>2021-08-07T09:15:32.811Z</time>
      </trkpt>
      <trkpt lat="48.57914" lon="7.74979">
        <ele>141</ele>
        <time>2021-08-07T09:15:37Z</time>
      </trkpt>
      <trkpt lat="48.57918" lon="7.7499">
        <ele>143</ele>
        <time>2021-08-07T09:15:45.358Z</time>
      </trkpt>
      <trkpt lat="48.57919" lon="7.74991">
        <ele>143</ele>
        <time>2021-08-07T09:15:50.112Z</time>
      </trkpt>
      <trkpt lat="48.57918" lon="7.74991">
        <ele>143</ele>
        <time>2021-08-07T09:15:55.112Z</time>
      </trkpt>
      <trkpt lat="48.57921" lon="7.74993">
        <ele>143</ele>
        <time>2021-08-07T09:15:59.381Z</time>
      </trkpt>
      <trkpt lat="48.57923" lon="7.75">
        <ele>143</ele>
        <time>2021-08-07T09:16:03.576Z</time>
      </trkpt>
      <trkpt lat="48.57926" lon="7.75008">
        <ele>143</ele>
        <time>2021-08-07T09:16:08.366Z</time>
      </trkpt>
      <trkpt lat="48.57928" lon="7.75012">
        <ele>143</ele>
        <time>2021-08-07T09:16:12.545Z</time>
      </trkpt>
      <trkpt lat="48.5793" lon="7.7502">
        <ele>144</ele>
        <time>2021-08-07T09:16:18.779Z</time>
      </trkpt>
      <trkpt lat="48.57933" lon="7.75026">
        <ele>141</ele>
        <time>2021-08-07T09:16:22.909Z</time>
      </trkpt>
      <trkpt lat="48.57933" lon="7.75035">
        <ele>141</ele>
        <time>2021-08-07T09:16:27.062Z</time>
      </trkpt>
      <trkpt lat="48.57935" lon="7.75046">
        <ele>141</ele>
        <time>2021-08-07T09:16:32.207Z</time>
      </trkpt>
      <trkpt lat="48.57938" lon="7.75055">
        <ele>141</ele>
        <time>2021-08-07T09:16:38.401Z</time>
      </trkpt>
      <trkpt lat="48.57943" lon="7.75063">
        <ele>141</ele>
        <time>2021-08-07T09:16:44.593Z</time>
      </trkpt>
      <trkpt lat="48.57945" lon="7.75073">
        <ele>141</ele>
        <time>2021-08-07T09:16:49.124Z</time>
      </trkpt>
      <trkpt lat="48.57948" lon="7.75079">
        <ele>141</ele>
        <time>2021-08-07T09:16:54.120Z</time>
      </trkpt>
      <trkpt lat="48.5795" lon="7.75086">
        <ele>141</ele>
        <time>2021-08-07T09:16:59.118Z</time>
      </trkpt>
      <trkpt lat="48.57957" lon="7.75086">
        <ele>141</ele>
        <time>2021-08-07T09:17:03.393Z</time>
      </trkpt>
      <trkpt lat="48.5796" lon="7.75088">
        <ele>141</ele>
        <time>2021-08-07T09:17:07.569Z</time>
      </trkpt>
      <trkpt lat="48.57962" lon="7.75085">
        <ele>141</ele>
        <time>2021-08-07T09:17:12.222Z</time>
      </trkpt>
      <trkpt lat="48.57967" lon="7.75091">
        <ele>141</ele>
        <time>2021-08-07T09:17:16.869Z</time>
      </trkpt>
      <trkpt lat="48.57969" lon="7.75094">
        <ele>141</ele>
        <time>2021-08-07T09:17:21.238Z</time>
      </trkpt>
      <trkpt lat="48.57974" lon="7.751">
        <ele>141</ele>
        <time>2021-08-07T09:17:25.453Z</time>
      </trkpt>
      <trkpt lat="48.57978" lon="7.75109">
        <ele>141</ele>
        <time>2021-08-07T09:17:29.665Z</time>
      </trkpt>
      <trkpt lat="48.57982" lon="7.75117">
        <ele>141</ele>
        <time>2021-08-07T09:17:33.927Z</time>
      </trkpt>
      <trkpt lat="48.57986" lon="7.75123">
        <ele>141</ele>
        <time>2021-08-07T09:17:38.135Z</time>
      </trkpt>
      <trkpt lat="48.57989" lon="7.75129">
        <ele>140</ele>
        <time>2021-08-07T09:17:42.300Z</time>
      </trkpt>
      <trkpt lat="48.57994" lon="7.75139">
        <ele>140</ele>
        <time>2021-08-07T09:17:48.560Z</time>
      </trkpt>
      <trkpt lat="48.57995" lon="7.75143">
        <ele>140</ele>
        <time>2021-08-07T09:17:52.762Z</time>
      </trkpt>
      <trkpt lat="48.57997" lon="7.75144">
        <ele>140</ele>
        <time>2021-08-07T09:17:57.203Z</time>
      </trkpt>
      <trkpt lat="48.57999" lon="7.7515">
        <ele>140</ele>
        <time>2021-08-07T09:18:02.177Z</time>
      </trkpt>
      <trkpt lat="48.58002" lon="7.75148">
        <ele>140</ele>
        <time>2021-08-07T09:18:06.199Z</time>
      </trkpt>
      <trkpt lat="48.58006" lon="7.75148">
        <ele>140</ele>
        <time>2021-08-07T09:18:10.415Z</time>
      </trkpt>
      <trkpt lat="48.58009" lon="7.75142">
        <ele>140</ele>
        <time>2021-08-07T09:18:14.630Z</time>
      </trkpt>
      <trkpt lat="48.58012" lon="7.75135">
        <ele>140</ele>
        <time>2021-08-07T09:18:18.830Z</time>
      </trkpt>
      <trkpt lat="48.58016" lon="7.75129">
        <ele>141</ele>
        <time>2021-08-07T09:18:23.114Z</time>
      </trkpt>
      <trkpt lat="48.5802" lon="7.75125">
        <ele>143</ele>
        <time>2021-08-07T09:18:27.342Z</time>
      </trkpt>
      <trkpt lat="48.58022" lon="7.75122">
        <ele>143</ele>
        <time>2021-08-07T09:18:31.526Z</time>
      </trkpt>
      <trkpt lat="48.58021" lon="7.75117">
        <ele>143</ele>
        <time>2021-08-07T09:18:35.720Z</time>
      </trkpt>
      <trkpt lat="48.58019" lon="7.75114">
        <ele>143</ele>
        <time>2021-08-07T09:18:39.925Z</time>
      </trkpt>
      <trkpt lat="48.58017" lon="7.75109">
        <ele>143</ele>
        <time>2021-08-07T09:18:45.199Z</time>
      </trkpt>
      <trkpt lat="48.58015" lon="7.75105">
        <ele>143</ele>
        <time>2021-08-07T09:18:49.381Z</time>
      </trkpt>
      <trkpt lat="48.58013" lon="7.75101">
        <ele>141</ele>
        <time>2021-08-07T09:18:53.543Z</time>
      </trkpt>
      <trkpt lat="48.58012" lon="7.75095">
        <ele>142</ele>
        <time>2021-08-07T09:18:57.677Z</time>
      </trkpt>
      <trkpt lat="48.58012" lon="7.75089">
        <ele>142</ele>
        <time>2021-08-07T09:19:01.876Z</time>
      </trkpt>
      <trkpt lat="48.58011" lon="7.75083">
        <ele>142</ele>
        <time>2021-08-07T09:19:06.048Z</time>
      </trkpt>
      <trkpt lat="48.58009" lon="7.75077">
        <ele>142</ele>
        <time>2021-08-07T09:19:11.253Z</time>
      </trkpt>
      <trkpt lat="48.58007" lon="7.75069">
        <ele>142</ele>
        <time>2021-08-07T09:19:17.477Z</time>
      </trkpt>
      <trkpt lat="48.58004" lon="7.75062">
        <ele>142</ele>
        <time>2021-08-07T09:19:23.702Z</time>
      </trkpt>
      <trkpt lat="48.58" lon="7.75055">
        <ele>142</ele>
        <time>2021-08-07T09:19:29.924Z</time>
      </trkpt>
      <trkpt lat="48.57997" lon="7.75046">
        <ele>142</ele>
        <time>2021-08-07T09:19:37.166Z</time>
      </trkpt>
      <trkpt lat="48.57995" lon="7.75039">
        <ele>142</ele>
        <time>2021-08-07T09:19:43.391Z</time>
      </trkpt>
      <trkpt lat="48.57994" lon="7.75033">
        <ele>142</ele>
        <time>2021-08-07T09:19:49.611Z</time>
      </trkpt>
      <trkpt lat="48.57992" lon="7.75027">
        <ele>142</ele>
        <time>2021-08-07T09:19:55.801Z</time>
      </trkpt>
      <trkpt lat="48.57993" lon="7.75025">
        <ele>142</ele>
        <time>2021-08-07T09:19:59.967Z</time>
      </trkpt>
      <trkpt lat="48.57989" lon="7.75022">
        <ele>142</ele>
        <time>2021-08-07T09:20:04.208Z</time>
      </trkpt>
      <trkpt lat="48.57987" lon="7.75017">
        <ele>142</ele>
        <time>2021-08-07T09:20:08.388Z</time>
      </trkpt>
      <trkpt lat="48.57985" lon="7.75013">
        <ele>143</ele>
        <time>2021-08-07T09:20:12.559Z</time>
      </trkpt>
      <trkpt lat="48.57978" lon="7.75001">
        <ele>143</ele>
        <time>2021-08-07T09:22:24.125Z</time>
      </trkpt>
      <trkpt lat="48.57977" lon="7.75">
        <ele>143</ele>
        <time>2021-08-07T09:22:28.196Z</time>
      </trkpt>
      <trkpt lat="48.57977" lon="7.75">
        <ele>143</ele>
        <time>2021-08-07T09:22:33.122Z</time>
      </trkpt>
      <trkpt lat="48.57977" lon="7.75">
        <ele>143</ele>
        <time>2021-08-07T09:22:37.132Z</time>
      </trkpt>
      <trkpt lat="48.57975" lon="7.74999">
        <ele>143</ele>
        <time>2021-08-07T09:22:41.325Z</time>
      </trkpt>
      <trkpt lat="48.57974" lon="7.74993">
        <ele>143</ele>
        <time>2021-08-07T09:22:45.529Z</time>
      </trkpt>
      <trkpt lat="48.57972" lon="7.7499">
        <ele>143</ele>
        <time>2021-08-07T09:22:50.268Z</time>
      </trkpt>
      <trkpt lat="48.57971" lon="7.74986">
        <ele>144</ele>
        <time>2021-08-07T09:22:54.451Z</time>
      </trkpt>
      <trkpt lat="48.57968" lon="7.74984">
        <ele>144</ele>
        <time>2021-08-07T09:22:58.660Z</time>
      </trkpt>
      <trkpt lat="48.57967" lon="7.7498">
        <ele>144</ele>
        <time>2021-08-07T09:23:02.888Z</time>
      </trkpt>
      <trkpt lat="48.57965" lon="7.74977">
        <ele>144</ele>
        <time>2021-08-07T09:23:07.092Z</time>
      </trkpt>
      <trkpt lat="48.57963" lon="7.74972">
        <ele>144</ele>
        <time>2021-08-07T09:23:12.399Z</time>
      </trkpt>
      <trkpt lat="48.57962" lon="7.74966">
        <ele>144</ele>
        <time>2021-08-07T09:23:16.549Z</time>
      </trkpt>
      <trkpt lat="48.57961" lon="7.74965">
        <ele>144</ele>
        <time>2021-08-07T09:23:20.698Z</time>
      </trkpt>
      <trkpt lat="48.5796" lon="7.74964">
        <ele>144</ele>
        <time>2021-08-07T09:23:25.125Z</time>
      </trkpt>
      <trkpt lat="48.57959" lon="7.7496">
        <ele>144</ele>
        <time>2021-08-07T09:23:29.211Z</time>
      </trkpt>
      <trkpt lat="48.57957" lon="7.74955">
        <ele>144</ele>
        <time>2021-08-07T09:23:33.433Z</time>
      </trkpt>
      <trkpt lat="48.57955" lon="7.74951">
        <ele>144</ele>
        <time>2021-08-07T09:23:37.673Z</time>
      </trkpt>
      <trkpt lat="48.57954" lon="7.74947">
        <ele>144</ele>
        <time>2021-08-07T09:23:41.891Z</time>
      </trkpt>
      <trkpt lat="48.5795" lon="7.74944">
        <ele>144</ele>
        <time>2021-08-07T09:23:46.146Z</time>
      </trkpt>
      <trkpt lat="48.57948" lon="7.74941">
        <ele>144</ele>
        <time>2021-08-07T09:23:50.289Z</time>
      </trkpt>
      <trkpt lat="48.57946" lon="7.74935">
        <ele>144</ele>
        <time>2021-08-07T09:23:54.444Z</time>
      </trkpt>
      <trkpt lat="48.57945" lon="7.74932">
        <ele>144</ele>
        <time>2021-08-07T09:23:58.635Z</time>
      </trkpt>
      <trkpt lat="48.57943" lon="7.74927">
        <ele>144</ele>
        <time>2021-08-07T09:24:02.816Z</time>
      </trkpt>
      <trkpt lat="48.57942" lon="7.74924">
        <ele>144</ele>
        <time>2021-08-07T09:24:06.996Z</time>
      </trkpt>
      <trkpt lat="48.57941" lon="7.7492">
        <ele>144</ele>
        <time>2021-08-07T09:24:11.150Z</time>
      </trkpt>
      <trkpt lat="48.57939" lon="7.74915">
        <ele>144</ele>
        <time>2021-08-07T09:24:15.384Z</time>
      </trkpt>
      <trkpt lat="48.57939" lon="7.74916">
        <ele>144</ele>
        <time>2021-08-07T09:24:19.541Z</time>
      </trkpt>
      <trkpt lat="48.57942" lon="7.74916">
        <ele>144</ele>
        <time>2021-08-07T09:24:24.126Z</time>
      </trkpt>
      <trkpt lat="48.57947" lon="7.74921">
        <ele>144</ele>
        <time>2021-08-07T09:24:29.126Z</time>
      </trkpt>
      <trkpt lat="48.57948" lon="7.74924">
        <ele>144</ele>
        <time>2021-08-07T09:24:33.377Z</time>
      </trkpt>
      <trkpt lat="48.57945" lon="7.7493">
        <ele>144</ele>
        <time>2021-08-07T09:25:05.430Z</time>
      </trkpt>
      <trkpt lat="48.57944" lon="7.74936">
        <ele>144</ele>
        <time>2021-08-07T09:25:09.664Z</time>
      </trkpt>
      <trkpt lat="48.57943" lon="7.74941">
        <ele>144</ele>
        <time>2021-08-07T09:25:14.162Z</time>
      </trkpt>
      <trkpt lat="48.57943" lon="7.74948">
        <ele>144</ele>
        <time>2021-08-07T09:25:18.435Z</time>
      </trkpt>
      <trkpt lat="48.57945" lon="7.74955">
        <ele>144</ele>
        <time>2021-08-07T09:25:22.686Z</time>
      </trkpt>
      <trkpt lat="48.57949" lon="7.74958">
        <ele>144</ele>
        <time>2021-08-07T09:25:26.935Z</time>
      </trkpt>
      <trkpt lat="48.57953" lon="7.74963">
        <ele>143</ele>
        <time>2021-08-07T09:25:31.124Z</time>
      </trkpt>
      <trkpt lat="48.57957" lon="7.74965">
        <ele>143</ele>
        <time>2021-08-07T09:25:35.290Z</time>
      </trkpt>
      <trkpt lat="48.5796" lon="7.74962">
        <ele>144</ele>
        <time>2021-08-07T09:25:39.437Z</time>
      </trkpt>
      <trkpt lat="48.57962" lon="7.74958">
        <ele>145</ele>
        <time>2021-08-07T09:25:43.622Z</time>
      </trkpt>
      <trkpt lat="48.57966" lon="7.74956">
        <ele>145</ele>
        <time>2021-08-07T09:25:47.808Z</time>
      </trkpt>
      <trkpt lat="48.57969" lon="7.74953">
        <ele>145</ele>
        <time>2021-08-07T09:25:52.006Z</time>
      </trkpt>
      <trkpt lat="48.57973" lon="7.74947">
        <ele>145</ele>
        <time>2021-08-07T09:25:56.163Z</time>
      </trkpt>
      <trkpt lat="48.57977" lon="7.74945">
        <ele>145</ele>
        <time>2021-08-07T09:26:00.328Z</time>
      </trkpt>
      <trkpt lat="48.57979" lon="7.74942">
        <ele>145</ele>
        <time>2021-08-07T09:26:04.467Z</time>
      </trkpt>
      <trkpt lat="48.57982" lon="7.7494">
        <ele>145</ele>
        <time>2021-08-07T09:26:08.655Z</time>
      </trkpt>
      <trkpt lat="48.57985" lon="7.74938">
        <ele>145</ele>
        <time>2021-08-07T09:26:12.829Z</time>
      </trkpt>
      <trkpt lat="48.57988" lon="7.74938">
        <ele>144</ele>
        <time>2021-08-07T09:26:17.008Z</time>
      </trkpt>
      <trkpt lat="48.57992" lon="7.74935">
        <ele>144</ele>
        <time>2021-08-07T09:26:21.142Z</time>
      </trkpt>
      <trkpt lat="48.57999" lon="7.74929">
        <ele>144</ele>
        <time>2021-08-07T09:26:27.389Z</time>
      </trkpt>
      <trkpt lat="48.58005" lon="7.74924">
        <ele>144</ele>
        <time>2021-08-07T09:26:33.587Z</time>
      </trkpt>
      <trkpt lat="48.58011" lon="7.7492">
        <ele>144</ele>
        <time>2021-08-07T09:26:39.816Z</time>
      </trkpt>
      <trkpt lat="48.58017" lon="7.74918">
        <ele>146</ele>
        <time>2021-08-07T09:26:44.069Z</time>
      </trkpt>
      <trkpt lat="48.58022" lon="7.74917">
        <ele>146</ele>
        <time>2021-08-07T09:26:49.305Z</time>
      </trkpt>
      <trkpt lat="48.58026" lon="7.74915">
        <ele>146</ele>
        <time>2021-08-07T09:26:53.454Z</time>
      </trkpt>
      <trkpt lat="48.58028" lon="7.74912">
        <ele>146</ele>
        <time>2021-08-07T09:27:11.122Z</time>
      </trkpt>
      <trkpt lat="48.5803" lon="7.74911">
        <ele>146</ele>
        <time>2021-08-07T09:27:15.288Z</time>
      </trkpt>
      <trkpt lat="48.58033" lon="7.74911">
        <ele>146</ele>
        <time>2021-08-07T09:27:19.508Z</time>
      </trkpt>
      <trkpt lat="48.58037" lon="7.74909">
        <ele>146</ele>
        <time>2021-08-07T09:27:23.716Z</time>
      </trkpt>
      <trkpt lat="48.5804" lon="7.7491">
        <ele>146</ele>
        <time>2021-08-07T09:27:27.938Z</time>
      </trkpt>
      <trkpt lat="48.58043" lon="7.74907">
        <ele>147</ele>
        <time>2021-08-07T09:27:32.158Z</time>
      </trkpt>
      <trkpt lat="48.58047" lon="7.74904">
        <ele>147</ele>
        <time>2021-08-07T09:27:36.268Z</time>
      </trkpt>
      <trkpt lat="48.58052" lon="7.74901">
        <ele>148</ele>
        <time>2021-08-07T09:27:41.312Z</time>
      </trkpt>
      <trkpt lat="48.58056" lon="7.74896">
        <ele>148</ele>
        <time>2021-08-07T09:27:46.116Z</time>
      </trkpt>
      <trkpt lat="48.58059" lon="7.74892">
        <ele>148</ele>
        <time>2021-08-07T09:27:50.365Z</time>
      </trkpt>
      <trkpt lat="48.58062" lon="7.74891">
        <ele>148</ele>
        <time>2021-08-07T09:27:54.565Z</time>
      </trkpt>
      <trkpt lat="48.58066" lon="7.74884">
        <ele>148</ele>
        <time>2021-08-07T09:28:00.158Z</time>
      </trkpt>
      <trkpt lat="48.58069" lon="7.74879">
        <ele>148</ele>
        <time>2021-08-07T09:28:04.310Z</time>
      </trkpt>
      <trkpt lat="48.58072" lon="7.74875">
        <ele>149</ele>
        <time>2021-08-07T09:28:08.460Z</time>
      </trkpt>
      <trkpt lat="48.58071" lon="7.74873">
        <ele>149</ele>
        <time>2021-08-07T09:28:13.139Z</time>
      </trkpt>
      <trkpt lat="48.58072" lon="7.74871">
        <ele>149</ele>
        <time>2021-08-07T09:28:17.177Z</time>
      </trkpt>
      <trkpt lat="48.58077" lon="7.74869">
        <ele>149</ele>
        <time>2021-08-07T09:28:21.430Z</time>
      </trkpt>
      <trkpt lat="48.58081" lon="7.74868">
        <ele>149</ele>
        <time>2021-08-07T09:28:25.710Z</time>
      </trkpt>
      <trkpt lat="48.58085" lon="7.74867">
        <ele>149</ele>
        <time>2021-08-07T09:28:30Z</time>
      </trkpt>
      <trkpt lat="48.58088" lon="7.74865">
        <ele>149</ele>
        <time>2021-08-07T09:28:34.200Z</time>
      </trkpt>
      <trkpt lat="48.58091" lon="7.74862">
        <ele>149</ele>
        <time>2021-08-07T09:28:38.405Z</time>
      </trkpt>
      <trkpt lat="48.58094" lon="7.7486">
        <ele>149</ele>
        <time>2021-08-07T09:28:42.568Z</time>
      </trkpt>
      <trkpt lat="48.58095" lon="7.74857">
        <ele>149</ele>
        <time>2021-08-07T09:28:46.751Z</time>
      </trkpt>
      <trkpt lat="48.58098" lon="7.74853">
        <ele>151</ele>
        <time>2021-08-07T09:28:51.279Z</time>
      </trkpt>
      <trkpt lat="48.581" lon="7.7485">
        <ele>151</ele>
        <time>2021-08-07T09:28:55.515Z</time>
      </trkpt>
      <trkpt lat="48.58104" lon="7.74847">
        <ele>149</ele>
        <time>2021-08-07T09:28:59.757Z</time>
      </trkpt>
      <trkpt lat="48.58108" lon="7.74845">
        <ele>149</ele>
        <time>2021-08-07T09:29:04.062Z</time>
      </trkpt>
      <trkpt lat="48.58112" lon="7.74843">
        <ele>149</ele>
        <time>2021-08-07T09:29:09.287Z</time>
      </trkpt>
      <trkpt lat="48.58115" lon="7.74842">
        <ele>149</ele>
        <time>2021-08-07T09:29:13.459Z</time>
      </trkpt>
      <trkpt lat="48.58119" lon="7.74841">
        <ele>149</ele>
        <time>2021-08-07T09:29:17.987Z</time>
      </trkpt>
      <trkpt lat="48.58123" lon="7.74836">
        <ele>149</ele>
        <time>2021-08-07T09:29:23.169Z</time>
      </trkpt>
      <trkpt lat="48.58128" lon="7.74833">
        <ele>152</ele>
        <time>2021-08-07T09:29:29.400Z</time>
      </trkpt>
      <trkpt lat="48.58134" lon="7.74833">
        <ele>152</ele>
        <time>2021-08-07T09:29:35.646Z</time>
      </trkpt>
      <trkpt lat="48.58139" lon="7.74834">
        <ele>152</ele>
        <time>2021-08-07T09:29:41.908Z</time>
      </trkpt>
      <trkpt lat="48.58144" lon="7.74834">
        <ele>152</ele>
        <time>2021-08-07T09:29:48.144Z</time>
      </trkpt>
      <trkpt lat="48.58147" lon="7.74833">
        <ele>152</ele>
        <time>2021-08-07T09:29:52.296Z</time>
      </trkpt>
      <trkpt lat="48.5815" lon="7.74832">
        <ele>152</ele>
        <time>2021-08-07T09:29:56.437Z</time>
      </trkpt>
      <trkpt lat="48.58154" lon="7.74832">
        <ele>152</ele>
        <time>2021-08-07T09:30:00.599Z</time>
      </trkpt>
      <trkpt lat="48.58157" lon="7.7483">
        <ele>152</ele>
        <time>2021-08-07T09:30:04.752Z</time>
      </trkpt>
      <trkpt lat="48.58157" lon="7.7483">
        <ele>152</ele>
        <time>2021-08-07T09:30:09.120Z</time>
      </trkpt>
      <trkpt lat="48.58159" lon="7.74824">
        <ele>152</ele>
        <time>2021-08-07T09:30:13.191Z</time>
      </trkpt>
      <trkpt lat="48.58158" lon="7.74817">
        <ele>151</ele>
        <time>2021-08-07T09:30:18.121Z</time>
      </trkpt>
      <trkpt lat="48.58158" lon="7.7481">
        <ele>151</ele>
        <time>2021-08-07T09:30:22.170Z</time>
      </trkpt>
      <trkpt lat="48.58157" lon="7.74801">
        <ele>151</ele>
        <time>2021-08-07T09:30:26.298Z</time>
      </trkpt>
      <trkpt lat="48.58156" lon="7.74794">
        <ele>151</ele>
        <time>2021-08-07T09:30:30.521Z</time>
      </trkpt>
      <trkpt lat="48.58154" lon="7.74787">
        <ele>152</ele>
        <time>2021-08-07T09:30:34.708Z</time>
      </trkpt>
      <trkpt lat="48.5815" lon="7.7478">
        <ele>151</ele>
        <time>2021-08-07T09:30:38.934Z</time>
      </trkpt>
      <trkpt lat="48.58141" lon="7.74764">
        <ele>152</ele>
        <time>2021-08-07T09:30:57.137Z</time>
      </trkpt>
      <trkpt lat="48.5814" lon="7.74767">
        <ele>151</ele>
        <time>2021-08-07T09:31:02.185Z</time>
      </trkpt>
      <trkpt lat="48.58141" lon="7.74759">
        <ele>152</ele>
        <time>2021-08-07T09:31:07.158Z</time>
      </trkpt>
      <trkpt lat="48.5814" lon="7.74749">
        <ele>152</ele>
        <time>2021-08-07T09:31:12.185Z</time>
      </trkpt>
      <trkpt lat="48.58141" lon="7.74741">
        <ele>152</ele>
        <time>2021-08-07T09:31:16.247Z</time>
      </trkpt>
      <trkpt lat="48.58144" lon="7.74736">
        <ele>152</ele>
        <time>2021-08-07T09:31:20.500Z</time>
      </trkpt>
      <trkpt lat="48.58141" lon="7.74728">
        <ele>152</ele>
        <time>2021-08-07T09:31:24.759Z</time>
      </trkpt>
      <trkpt lat="48.5814" lon="7.74726">
        <ele>152</ele>
        <time>2021-08-07T09:31:29.120Z</time>
      </trkpt>
      <trkpt lat="48.5814" lon="7.74726">
        <ele>152</ele>
        <time>2021-08-07T09:31:33.137Z</time>
      </trkpt>
      <trkpt lat="48.58138" lon="7.74723">
        <ele>152</ele>
        <time>2021-08-07T09:31:37.368Z</time>
      </trkpt>
      <trkpt lat="48.58139" lon="7.74718">
        <ele>152</ele>
        <time>2021-08-07T09:31:41.599Z</time>
      </trkpt>
      <trkpt lat="48.58139" lon="7.74713">
        <ele>152</ele>
        <time>2021-08-07T09:31:45.831Z</time>
      </trkpt>
      <trkpt lat="48.58137" lon="7.7471">
        <ele>152</ele>
        <time>2021-08-07T09:31:50.068Z</time>
      </trkpt>
      <trkpt lat="48.58134" lon="7.74707">
        <ele>151</ele>
        <time>2021-08-07T09:31:55.304Z</time>
      </trkpt>
      <trkpt lat="48.58135" lon="7.74702">
        <ele>151</ele>
        <time>2021-08-07T09:31:59.465Z</time>
      </trkpt>
      <trkpt lat="48.58133" lon="7.74696">
        <ele>151</ele>
        <time>2021-08-07T09:32:03.657Z</time>
      </trkpt>
      <trkpt lat="48.58133" lon="7.74691">
        <ele>151</ele>
        <time>2021-08-07T09:32:07.851Z</time>
      </trkpt>
      <trkpt lat="48.58131" lon="7.74686">
        <ele>151</ele>
        <time>2021-08-07T09:32:12.050Z</time>
      </trkpt>
      <trkpt lat="48.5813" lon="7.74683">
        <ele>151</ele>
        <time>2021-08-07T09:32:16.233Z</time>
      </trkpt>
      <trkpt lat="48.58129" lon="7.74682">
        <ele>151</ele>
        <time>2021-08-07T09:32:45.123Z</time>
      </trkpt>
      <trkpt lat="48.58129" lon="7.7468">
        <ele>151</ele>
        <time>2021-08-07T09:32:50.187Z</time>
      </trkpt>
      <trkpt lat="48.58129" lon="7.74677">
        <ele>151</ele>
        <time>2021-08-07T09:32:55.127Z</time>
      </trkpt>
      <trkpt lat="48.58129" lon="7.74675">
        <ele>151</ele>
        <time>2021-08-07T09:32:59.131Z</time>
      </trkpt>
      <trkpt lat="48.58126" lon="7.74669">
        <ele>151</ele>
        <time>2021-08-07T09:33:03.130Z</time>
      </trkpt>
      <trkpt lat="48.58125" lon="7.74669">
        <ele>152</ele>
        <time>2021-08-07T09:33:08.124Z</time>
      </trkpt>
      <trkpt lat="48.58121" lon="7.74669">
        <ele>152</ele>
        <time>2021-08-07T09:33:12.137Z</time>
      </trkpt>
      <trkpt lat="48.58125" lon="7.7466">
        <ele>152</ele>
        <time>2021-08-07T09:33:17.130Z</time>
      </trkpt>
      <trkpt lat="48.58126" lon="7.74652">
        <ele>152</ele>
        <time>2021-08-07T09:33:22.122Z</time>
      </trkpt>
      <trkpt lat="48.58124" lon="7.74646">
        <ele>153</ele>
        <time>2021-08-07T09:33:27.120Z</time>
      </trkpt>
      <trkpt lat="48.58122" lon="7.74639">
        <ele>153</ele>
        <time>2021-08-07T09:33:32.128Z</time>
      </trkpt>
      <trkpt lat="48.5812" lon="7.74633">
        <ele>153</ele>
        <time>2021-08-07T09:33:37.120Z</time>
      </trkpt>
      <trkpt lat="48.5812" lon="7.74631">
        <ele>153</ele>
        <time>2021-08-07T09:33:41.121Z</time>
      </trkpt>
      <trkpt lat="48.58121" lon="7.74627">
        <ele>153</ele>
        <time>2021-08-07T09:34:04.129Z</time>
      </trkpt>
      <trkpt lat="48.58124" lon="7.74628">
        <ele>153</ele>
        <time>2021-08-07T09:34:08.128Z</time>
      </trkpt>
      <trkpt lat="48.58127" lon="7.7463">
        <ele>152</ele>
        <time>2021-08-07T09:34:13.247Z</time>
      </trkpt>
      <trkpt lat="48.5813" lon="7.74631">
        <ele>152</ele>
        <time>2021-08-07T09:34:18.130Z</time>
      </trkpt>
      <trkpt lat="48.58134" lon="7.74631">
        <ele>152</ele>
        <time>2021-08-07T09:34:23.121Z</time>
      </trkpt>
      <trkpt lat="48.5814" lon="7.74633">
        <ele>152</ele>
        <time>2021-08-07T09:34:28.131Z</time>
      </trkpt>
      <trkpt lat="48.58143" lon="7.74634">
        <ele>152</ele>
        <time>2021-08-07T09:34:33.111Z</time>
      </trkpt>
      <trkpt lat="48.58147" lon="7.74635">
        <ele>152</ele>
        <time>2021-08-07T09:34:37.108Z</time>
      </trkpt>
      <trkpt lat="48.58151" lon="7.74636">
        <ele>152</ele>
        <time>2021-08-07T09:34:42.117Z</time>
      </trkpt>
      <trkpt lat="48.58155" lon="7.74636">
        <ele>151</ele>
        <time>2021-08-07T09:34:46.116Z</time>
      </trkpt>
      <trkpt lat="48.5816" lon="7.74635">
        <ele>151</ele>
        <time>2021-08-07T09:34:51.125Z</time>
      </trkpt>
      <trkpt lat="48.58165" lon="7.74634">
        <ele>151</ele>
        <time>2021-08-07T09:34:56.124Z</time>
      </trkpt>
      <trkpt lat="48.5817" lon="7.74634">
        <ele>151</ele>
        <time>2021-08-07T09:35:01.131Z</time>
      </trkpt>
      <trkpt lat="48.58176" lon="7.74631">
        <ele>151</ele>
        <time>2021-08-07T09:35:06.118Z</time>
      </trkpt>
      <trkpt lat="48.5818" lon="7.74628">
        <ele>151</ele>
        <time>2021-08-07T09:35:10.128Z</time>
      </trkpt>
      <trkpt lat="48.58185" lon="7.7463">
        <ele>152</ele>
        <time>2021-08-07T09:35:15.125Z</time>
      </trkpt>
      <trkpt lat="48.58189" lon="7.74631">
        <ele>152</ele>
        <time>2021-08-07T09:35:19.131Z</time>
      </trkpt>
      <trkpt lat="48.58195" lon="7.74634">
        <ele>152</ele>
        <time>2021-08-07T09:35:24.118Z</time>
      </trkpt>
      <trkpt lat="48.58201" lon="7.74639">
        <ele>152</ele>
        <time>2021-08-07T09:35:29.118Z</time>
      </trkpt>
      <trkpt lat="48.58206" lon="7.74639">
        <ele>152</ele>
        <time>2021-08-07T09:35:34.114Z</time>
      </trkpt>
      <trkpt lat="48.5821" lon="7.74639">
        <ele>150</ele>
        <time>2021-08-07T09:35:38.119Z</time>
      </trkpt>
      <trkpt lat="48.58213" lon="7.74639">
        <ele>150</ele>
        <time>2021-08-07T09:35:42.125Z</time>
      </trkpt>
      <trkpt lat="48.58218" lon="7.74637">
        <ele>150</ele>
        <time>2021-08-07T09:35:47.124Z</time>
      </trkpt>
      <trkpt lat="48.58223" lon="7.74633">
        <ele>150</ele>
        <time>2021-08-07T09:35:52.131Z</time>
      </trkpt>
      <trkpt lat="48.58227" lon="7.7463">
        <ele>150</ele>
        <time>2021-08-07T09:35:57.117Z</time>
      </trkpt>
      <trkpt lat="48.58232" lon="7.74626">
        <ele>150</ele>
        <time>2021-08-07T09:36:02.121Z</time>
      </trkpt>
      <trkpt lat="48.58237" lon="7.74622">
        <ele>150</ele>
        <time>2021-08-07T09:36:07.126Z</time>
      </trkpt>
      <trkpt lat="48.58242" lon="7.74615">
        <ele>150</ele>
        <time>2021-08-07T09:36:12.120Z</time>
      </trkpt>
      <trkpt lat="48.58247" lon="7.74608">
        <ele>150</ele>
        <time>2021-08-07T09:36:17.119Z</time>
      </trkpt>
      <trkpt lat="48.58251" lon="7.74601">
        <ele>150</ele>
        <time>2021-08-07T09:36:21.121Z</time>
      </trkpt>
      <trkpt lat="48.58257" lon="7.74593">
        <ele>152</ele>
        <time>2021-08-07T09:36:26.137Z</time>
      </trkpt>
      <trkpt lat="48.58262" lon="7.74587">
        <ele>152</ele>
        <time>2021-08-07T09:36:31.119Z</time>
      </trkpt>
      <trkpt lat="48.58266" lon="7.74579">
        <ele>148</ele>
        <time>2021-08-07T09:36:36.118Z</time>
      </trkpt>
      <trkpt lat="48.5827" lon="7.74576">
        <ele>148</ele>
        <time>2021-08-07T09:36:40.129Z</time>
      </trkpt>
      <trkpt lat="48.58275" lon="7.74574">
        <ele>148</ele>
        <time>2021-08-07T09:36:45.130Z</time>
      </trkpt>
      <trkpt lat="48.58281" lon="7.74569">
        <ele>147</ele>
        <time>2021-08-07T09:36:50.123Z</time>
      </trkpt>
      <trkpt lat="48.58287" lon="7.74566">
        <ele>147</ele>
        <time>2021-08-07T09:36:55.122Z</time>
      </trkpt>
      <trkpt lat="48.58291" lon="7.74567">
        <ele>147</ele>
        <time>2021-08-07T09:37:00.122Z</time>
      </trkpt>
      <trkpt lat="48.58295" lon="7.7457">
        <ele>143</ele>
        <time>2021-08-07T09:37:05.126Z</time>
      </trkpt>
      <trkpt lat="48.58298" lon="7.74574">
        <ele>143</ele>
        <time>2021-08-07T09:37:10.121Z</time>
      </trkpt>
      <trkpt lat="48.58301" lon="7.74578">
        <ele>143</ele>
        <time>2021-08-07T09:37:14.119Z</time>
      </trkpt>
      <trkpt lat="48.58305" lon="7.74583">
        <ele>143</ele>
        <time>2021-08-07T09:37:19.118Z</time>
      </trkpt>
      <trkpt lat="48.58309" lon="7.74586">
        <ele>143</ele>
        <time>2021-08-07T09:37:23.138Z</time>
      </trkpt>
      <trkpt lat="48.58312" lon="7.74592">
        <ele>143</ele>
        <time>2021-08-07T09:37:28.139Z</time>
      </trkpt>
      <trkpt lat="48.58314" lon="7.74595">
        <ele>143</ele>
        <time>2021-08-07T09:37:32.145Z</time>
      </trkpt>
      <trkpt lat="48.58317" lon="7.74599">
        <ele>145</ele>
        <time>2021-08-07T09:37:37.125Z</time>
      </trkpt>
      <trkpt lat="48.58318" lon="7.74605">
        <ele>145</ele>
        <time>2021-08-07T09:37:42.117Z</time>
      </trkpt>
      <trkpt lat="48.58319" lon="7.74611">
        <ele>145</ele>
        <time>2021-08-07T09:37:46.136Z</time>
      </trkpt>
      <trkpt lat="48.5832" lon="7.74619">
        <ele>142</ele>
        <time>2021-08-07T09:37:51.128Z</time>
      </trkpt>
      <trkpt lat="48.58321" lon="7.74627">
        <ele>143</ele>
        <time>2021-08-07T09:37:56.123Z</time>
      </trkpt>
      <trkpt lat="48.58322" lon="7.74634">
        <ele>143</ele>
        <time>2021-08-07T09:38:01.126Z</time>
      </trkpt>
      <trkpt lat="48.58324" lon="7.74641">
        <ele>143</ele>
        <time>2021-08-07T09:38:05.129Z</time>
      </trkpt>
      <trkpt lat="48.58326" lon="7.74648">
        <ele>143</ele>
        <time>2021-08-07T09:38:10.125Z</time>
      </trkpt>
      <trkpt lat="48.58327" lon="7.74656">
        <ele>145</ele>
        <time>2021-08-07T09:38:15.125Z</time>
      </trkpt>
      <trkpt lat="48.58329" lon="7.74665">
        <ele>145</ele>
        <time>2021-08-07T09:38:20.124Z</time>
      </trkpt>
      <trkpt lat="48.58331" lon="7.74672">
        <ele>145</ele>
        <time>2021-08-07T09:38:25.125Z</time>
      </trkpt>
      <trkpt lat="48.58334" lon="7.74676">
        <ele>145</ele>
        <time>2021-08-07T09:38:29.125Z</time>
      </trkpt>
      <trkpt lat="48.58339" lon="7.7468">
        <ele>145</ele>
        <time>2021-08-07T09:38:34.115Z</time>
      </trkpt>
      <trkpt lat="48.58343" lon="7.74687">
        <ele>145</ele>
        <time>2021-08-07T09:38:39.122Z</time>
      </trkpt>
      <trkpt lat="48.58345" lon="7.74693">
        <ele>145</ele>
        <time>2021-08-07T09:38:43.131Z</time>
      </trkpt>
      <trkpt lat="48.58348" lon="7.74701">
        <ele>148</ele>
        <time>2021-08-07T09:38:48.115Z</time>
      </trkpt>
      <trkpt lat="48.58351" lon="7.74708">
        <ele>148</ele>
        <time>2021-08-07T09:38:53.119Z</time>
      </trkpt>
      <trkpt lat="48.58354" lon="7.74714">
        <ele>148</ele>
        <time>2021-08-07T09:38:58.118Z</time>
      </trkpt>
      <trkpt lat="48.58357" lon="7.74721">
        <ele>148</ele>
        <time>2021-08-07T09:39:03.119Z</time>
      </trkpt>
      <trkpt lat="48.5836" lon="7.74727">
        <ele>148</ele>
        <time>2021-08-07T09:39:08.123Z</time>
      </trkpt>
      <trkpt lat="48.58362" lon="7.74732">
        <ele>148</ele>
        <time>2021-08-07T09:39:13.133Z</time>
      </trkpt>
      <trkpt lat="48.58364" lon="7.74739">
        <ele>148</ele>
        <time>2021-08-07T09:39:18.128Z</time>
      </trkpt>
      <trkpt lat="48.58366" lon="7.74747">
        <ele>148</ele>
        <time>2021-08-07T09:39:23.119Z</time>
      </trkpt>
      <trkpt lat="48.58366" lon="7.74754">
        <ele>148</ele>
        <time>2021-08-07T09:39:27.122Z</time>
      </trkpt>
      <trkpt lat="48.58365" lon="7.7476">
        <ele>148</ele>
        <time>2021-08-07T09:39:31.132Z</time>
      </trkpt>
      <trkpt lat="48.58364" lon="7.74762">
        <ele>148</ele>
        <time>2021-08-07T09:39:35.131Z</time>
      </trkpt>
      <trkpt lat="48.58361" lon="7.74765">
        <ele>147</ele>
        <time>2021-08-07T09:39:40.118Z</time>
      </trkpt>
      <trkpt lat="48.58358" lon="7.74766">
        <ele>147</ele>
        <time>2021-08-07T09:39:44.126Z</time>
      </trkpt>
      <trkpt lat="48.58354" lon="7.74769">
        <ele>147</ele>
        <time>2021-08-07T09:39:49.140Z</time>
      </trkpt>
      <trkpt lat="48.5835" lon="7.74773">
        <ele>147</ele>
        <time>2021-08-07T09:39:54.127Z</time>
      </trkpt>
      <trkpt lat="48.58345" lon="7.74774">
        <ele>148</ele>
        <time>2021-08-07T09:39:59.125Z</time>
      </trkpt>
      <trkpt lat="48.58342" lon="7.74778">
        <ele>148</ele>
        <time>2021-08-07T09:40:03.132Z</time>
      </trkpt>
      <trkpt lat="48.58338" lon="7.74778">
        <ele>148</ele>
        <time>2021-08-07T09:40:08.122Z</time>
      </trkpt>
      <trkpt lat="48.58327" lon="7.74779">
        <ele>148</ele>
        <time>2021-08-07T09:40:27.116Z</time>
      </trkpt>
      <trkpt lat="48.58322" lon="7.74778">
        <ele>148</ele>
        <time>2021-08-07T09:40:32.117Z</time>
      </trkpt>
      <trkpt lat="48.58318" lon="7.74777">
        <ele>151</ele>
        <time>2021-08-07T09:40:37.121Z</time>
      </trkpt>
      <trkpt lat="48.58314" lon="7.74778">
        <ele>151</ele>
        <time>2021-08-07T09:40:42.117Z</time>
      </trkpt>
      <trkpt lat="48.58309" lon="7.74779">
        <ele>151</ele>
        <time>2021-08-07T09:40:46.118Z</time>
      </trkpt>
      <trkpt lat="48.58305" lon="7.74783">
        <ele>151</ele>
        <time>2021-08-07T09:40:50.134Z</time>
      </trkpt>
      <trkpt lat="48.58302" lon="7.74787">
        <ele>151</ele>
        <time>2021-08-07T09:40:55.127Z</time>
      </trkpt>
      <trkpt lat="48.58299" lon="7.74786">
        <ele>151</ele>
        <time>2021-08-07T09:41:00.132Z</time>
      </trkpt>
      <trkpt lat="48.58294" lon="7.74794">
        <ele>152</ele>
        <time>2021-08-07T09:41:05.119Z</time>
      </trkpt>
      <trkpt lat="48.58295" lon="7.74802">
        <ele>152</ele>
        <time>2021-08-07T09:41:10.129Z</time>
      </trkpt>
      <trkpt lat="48.58295" lon="7.74808">
        <ele>152</ele>
        <time>2021-08-07T09:41:15.133Z</time>
      </trkpt>
      <trkpt lat="48.58291" lon="7.74809">
        <ele>154</ele>
        <time>2021-08-07T09:41:20.121Z</time>
      </trkpt>
      <trkpt lat="48.58287" lon="7.74811">
        <ele>154</ele>
        <time>2021-08-07T09:41:25.118Z</time>
      </trkpt>
      <trkpt lat="48.58282" lon="7.74814">
        <ele>154</ele>
        <time>2021-08-07T09:41:30.125Z</time>
      </trkpt>
      <trkpt lat="48.5828" lon="7.74816">
        <ele>154</ele>
        <time>2021-08-07T09:41:34.127Z</time>
      </trkpt>
      <trkpt lat="48.58275" lon="7.74819">
        <ele>154</ele>
        <time>2021-08-07T09:41:39.121Z</time>
      </trkpt>
      <trkpt lat="48.58271" lon="7.74823">
        <ele>155</ele>
        <time>2021-08-07T09:41:44.129Z</time>
      </trkpt>
      <trkpt lat="48.5827" lon="7.74828">
        <ele>155</ele>
        <time>2021-08-07T09:42:16.129Z</time>
      </trkpt>
      <trkpt lat="48.58269" lon="7.74834">
        <ele>155</ele>
        <time>2021-08-07T09:42:20.137Z</time>
      </trkpt>
      <trkpt lat="48.58269" lon="7.74842">
        <ele>155</ele>
        <time>2021-08-07T09:42:25.125Z</time>
      </trkpt>
      <trkpt lat="48.58269" lon="7.74847">
        <ele>155</ele>
        <time>2021-08-07T09:42:29.126Z</time>
      </trkpt>
      <trkpt lat="48.58272" lon="7.74852">
        <ele>155</ele>
        <time>2021-08-07T09:42:34.134Z</time>
      </trkpt>
      <trkpt lat="48.58274" lon="7.74859">
        <ele>155</ele>
        <time>2021-08-07T09:42:39.131Z</time>
      </trkpt>
      <trkpt lat="48.58277" lon="7.74862">
        <ele>155</ele>
        <time>2021-08-07T09:42:44.132Z</time>
      </trkpt>
      <trkpt lat="48.5828" lon="7.74868">
        <ele>155</ele>
        <time>2021-08-07T09:42:49.134Z</time>
      </trkpt>
      <trkpt lat="48.5828" lon="7.74869">
        <ele>155</ele>
        <time>2021-08-07T09:42:54.125Z</time>
      </trkpt>
      <trkpt lat="48.58278" lon="7.74873">
        <ele>155</ele>
        <time>2021-08-07T09:42:59.130Z</time>
      </trkpt>
      <trkpt lat="48.58273" lon="7.74876">
        <ele>154</ele>
        <time>2021-08-07T09:43:04.120Z</time>
      </trkpt>
      <trkpt lat="48.58269" lon="7.7488">
        <ele>154</ele>
        <time>2021-08-07T09:43:09.120Z</time>
      </trkpt>
      <trkpt lat="48.58265" lon="7.74883">
        <ele>154</ele>
        <time>2021-08-07T09:43:14.129Z</time>
      </trkpt>
      <trkpt lat="48.58261" lon="7.74888">
        <ele>154</ele>
        <time>2021-08-07T09:43:19.141Z</time>
      </trkpt>
      <trkpt lat="48.58257" lon="7.74891">
        <ele>154</ele>
        <time>2021-08-07T09:43:24.114Z</time>
      </trkpt>
      <trkpt lat="48.58254" lon="7.74891">
        <ele>154</ele>
        <time>2021-08-07T09:43:28.113Z</time>
      </trkpt>
      <trkpt lat="48.5825" lon="7.74894">
        <ele>154</ele>
        <time>2021-08-07T09:43:32.127Z</time>
      </trkpt>
      <trkpt lat="48.58248" lon="7.74894">
        <ele>154</ele>
        <time>2021-08-07T09:43:37.130Z</time>
      </trkpt>
      <trkpt lat="48.58247" lon="7.74896">
        <ele>154</ele>
        <time>2021-08-07T09:43:42.121Z</time>
      </trkpt>
      <trkpt lat="48.58245" lon="7.74903">
        <ele>155</ele>
        <time>2021-08-07T09:43:47.119Z</time>
      </trkpt>
      <trkpt lat="48.58242" lon="7.74907">
        <ele>155</ele>
        <time>2021-08-07T09:43:51.125Z</time>
      </trkpt>
      <trkpt lat="48.58241" lon="7.74907">
        <ele>155</ele>
        <time>2021-08-07T09:43:56.128Z</time>
      </trkpt>
      <trkpt lat="48.58236" lon="7.7491">
        <ele>155</ele>
        <time>2021-08-07T09:44:01.118Z</time>
      </trkpt>
      <trkpt lat="48.58231" lon="7.7491">
        <ele>154</ele>
        <time>2021-08-07T09:44:06.129Z</time>
      </trkpt>
      <trkpt lat="48.58226" lon="7.74913">
        <ele>154</ele>
        <time>2021-08-07T09:44:11.120Z</time>
      </trkpt>
      <trkpt lat="48.58222" lon="7.74916">
        <ele>154</ele>
        <time>2021-08-07T09:44:15.117Z</time>
      </trkpt>
      <trkpt lat="48.58218" lon="7.74918">
        <ele>154</ele>
        <time>2021-08-07T09:44:19.125Z</time>
      </trkpt>
      <trkpt lat="48.58214" lon="7.74925">
        <ele>154</ele>
        <time>2021-08-07T09:44:24.135Z</time>
      </trkpt>
      <trkpt lat="48.58213" lon="7.74926">
        <ele>154</ele>
        <time>2021-08-07T09:44:29.120Z</time>
      </trkpt>
      <trkpt lat="48.58211" lon="7.74926">
        <ele>154</ele>
        <time>2021-08-07T09:44:33.135Z</time>
      </trkpt>
      <trkpt lat="48.58207" lon="7.74923">
        <ele>154</ele>
        <time>2021-08-07T09:44:38.118Z</time>
      </trkpt>
      <trkpt lat="48.58204" lon="7.74917">
        <ele>154</ele>
        <time>2021-08-07T09:44:43.118Z</time>
      </trkpt>
      <trkpt lat="48.58202" lon="7.74914">
        <ele>154</ele>
        <time>2021-08-07T09:44:48.113Z</time>
      </trkpt>
      <trkpt lat="48.582" lon="7.7491">
        <ele>154</ele>
        <time>2021-08-07T09:44:52.183Z</time>
      </trkpt>
      <trkpt lat="48.58198" lon="7.74904">
        <ele>154</ele>
        <time>2021-08-07T09:44:57.113Z</time>
      </trkpt>
      <trkpt lat="48.58196" lon="7.74896">
        <ele>153</ele>
        <time>2021-08-07T09:45:02.123Z</time>
      </trkpt>
      <trkpt lat="48.5819" lon="7.74889">
        <ele>153</ele>
        <time>2021-08-07T09:45:07.123Z</time>
      </trkpt>
      <trkpt lat="48.58188" lon="7.74882">
        <ele>153</ele>
        <time>2021-08-07T09:45:12.132Z</time>
      </trkpt>
      <trkpt lat="48.58184" lon="7.74877">
        <ele>153</ele>
        <time>2021-08-07T09:45:17.129Z</time>
      </trkpt>
      <trkpt lat="48.58182" lon="7.7487">
        <ele>152</ele>
        <time>2021-08-07T09:45:22.118Z</time>
      </trkpt>
      <trkpt lat="48.58178" lon="7.74864">
        <ele>154</ele>
        <time>2021-08-07T09:45:26.130Z</time>
      </trkpt>
      <trkpt lat="48.58176" lon="7.74856">
        <ele>154</ele>
        <time>2021-08-07T09:45:31.126Z</time>
      </trkpt>
      <trkpt lat="48.58172" lon="7.7485">
        <ele>154</ele>
        <time>2021-08-07T09:45:36.134Z</time>
      </trkpt>
      <trkpt lat="48.58172" lon="7.74844">
        <ele>152</ele>
        <time>2021-08-07T09:45:41.129Z</time>
      </trkpt>
      <trkpt lat="48.58175" lon="7.74842">
        <ele>152</ele>
        <time>2021-08-07T09:45:46.118Z</time>
      </trkpt>
      <trkpt lat="48.58178" lon="7.74839">
        <ele>152</ele>
        <time>2021-08-07T09:45:50.122Z</time>
      </trkpt>
      <trkpt lat="48.58181" lon="7.74835">
        <ele>151</ele>
        <time>2021-08-07T09:45:55.117Z</time>
      </trkpt>
      <trkpt lat="48.58183" lon="7.74832">
        <ele>151</ele>
        <time>2021-08-07T09:45:59.126Z</time>
      </trkpt>
      <trkpt lat="48.58187" lon="7.74828">
        <ele>151</ele>
        <time>2021-08-07T09:46:04.123Z</time>
      </trkpt>
      <trkpt lat="48.5819" lon="7.74824">
        <ele>151</ele>
        <time>2021-08-07T09:46:09.115Z</time>
      </trkpt>
      <trkpt lat="48.58194" lon="7.74821">
        <ele>151</ele>
        <time>2021-08-07T09:46:14.111Z</time>
      </trkpt>
      <trkpt lat="48.58198" lon="7.74817">
        <ele>151</ele>
        <time>2021-08-07T09:46:19.117Z</time>
      </trkpt>
      <trkpt lat="48.58202" lon="7.74811">
        <ele>151</ele>
        <time>2021-08-07T09:46:24.111Z</time>
      </trkpt>
      <trkpt lat="48.58205" lon="7.74807">
        <ele>151</ele>
        <time>2021-08-07T09:46:28.116Z</time>
      </trkpt>
      <trkpt lat="48.58208" lon="7.74799">
        <ele>151</ele>
        <time>2021-08-07T09:46:33.122Z</time>
      </trkpt>
      <trkpt lat="48.58211" lon="7.74793">
        <ele>151</ele>
        <time>2021-08-07T09:46:38.113Z</time>
      </trkpt>
      <trkpt lat="48.58213" lon="7.74787">
        <ele>150</ele>
        <time>2021-08-07T09:46:42.123Z</time>
      </trkpt>
      <trkpt lat="48.58211" lon="7.74779">
        <ele>150</ele>
        <time>2021-08-07T09:46:47.122Z</time>
      </trkpt>
      <trkpt lat="48.58212" lon="7.7477">
        <ele>150</ele>
        <time>2021-08-07T09:46:52.118Z</time>
      </trkpt>
      <trkpt lat="48.58212" lon="7.74764">
        <ele>150</ele>
        <time>2021-08-07T09:46:56.124Z</time>
      </trkpt>
      <trkpt lat="48.58215" lon="7.74755">
        <ele>151</ele>
        <time>2021-08-07T09:47:01.121Z</time>
      </trkpt>
      <trkpt lat="48.58219" lon="7.74751">
        <ele>151</ele>
        <time>2021-08-07T09:47:06.111Z</time>
      </trkpt>
      <trkpt lat="48.58222" lon="7.74751">
        <ele>151</ele>
        <time>2021-08-07T09:47:10.123Z</time>
      </trkpt>
      <trkpt lat="48.5823" lon="7.74746">
        <ele>151</ele>
        <time>2021-08-07T09:47:19.129Z</time>
      </trkpt>
      <trkpt lat="48.58228" lon="7.74741">
        <ele>151</ele>
        <time>2021-08-07T09:47:24.127Z</time>
      </trkpt>
      <trkpt lat="48.5823" lon="7.74739">
        <ele>151</ele>
        <time>2021-08-07T09:47:29.128Z</time>
      </trkpt>
      <trkpt lat="48.58232" lon="7.74737">
        <ele>151</ele>
        <time>2021-08-07T09:47:33.126Z</time>
      </trkpt>
      <trkpt lat="48.58235" lon="7.74733">
        <ele>149</ele>
        <time>2021-08-07T09:47:38.121Z</time>
      </trkpt>
      <trkpt lat="48.58235" lon="7.74731">
        <ele>149</ele>
        <time>2021-08-07T09:47:43.123Z</time>
      </trkpt>
      <trkpt lat="48.58235" lon="7.7473">
        <ele>149</ele>
        <time>2021-08-07T09:47:48.116Z</time>
      </trkpt>
      <trkpt lat="48.58237" lon="7.74729">
        <ele>150</ele>
        <time>2021-08-07T09:47:52.128Z</time>
      </trkpt>
      <trkpt lat="48.5824" lon="7.74729">
        <ele>150</ele>
        <time>2021-08-07T09:47:56.136Z</time>
      </trkpt>
      <trkpt lat="48.58245" lon="7.74731">
        <ele>150</ele>
        <time>2021-08-07T09:48:01.132Z</time>
      </trkpt>
      <trkpt lat="48.5825" lon="7.74732">
        <ele>150</ele>
        <time>2021-08-07T09:48:06.127Z</time>
      </trkpt>
      <trkpt lat="48.58257" lon="7.74731">
        <ele>150</ele>
        <time>2021-08-07T09:48:11.113Z</time>
      </trkpt>
      <trkpt lat="48.58262" lon="7.7473">
        <ele>150</ele>
        <time>2021-08-07T09:48:15.137Z</time>
      </trkpt>
      <trkpt lat="48.58268" lon="7.74729">
        <ele>149</ele>
        <time>2021-08-07T09:48:20.130Z</time>
      </trkpt>
      <trkpt lat="48.58272" lon="7.7473">
        <ele>149</ele>
        <time>2021-08-07T09:48:24.125Z</time>
      </trkpt>
      <trkpt lat="48.58278" lon="7.74729">
        <ele>149</ele>
        <time>2021-08-07T09:48:28.133Z</time>
      </trkpt>
      <trkpt lat="48.58286" lon="7.74726">
        <ele>149</ele>
        <time>2021-08-07T09:48:33.128Z</time>
      </trkpt>
      <trkpt lat="48.58293" lon="7.74725">
        <ele>146</ele>
        <time>2021-08-07T09:48:38.125Z</time>
      </trkpt>
      <trkpt lat="48.58301" lon="7.74724">
        <ele>146</ele>
        <time>2021-08-07T09:48:43.133Z</time>
      </trkpt>
      <trkpt lat="48.58306" lon="7.74722">
        <ele>146</ele>
        <time>2021-08-07T09:48:48.124Z</time>
      </trkpt>
      <trkpt lat="48.58312" lon="7.7472">
        <ele>146</ele>
        <time>2021-08-07T09:48:52.125Z</time>
      </trkpt>
      <trkpt lat="48.58318" lon="7.74718">
        <ele>146</ele>
        <time>2021-08-07T09:48:57.138Z</time>
      </trkpt>
      <trkpt lat="48.58324" lon="7.74713">
        <ele>146</ele>
        <time>2021-08-07T09:49:02.125Z</time>
      </trkpt>
      <trkpt lat="48.58329" lon="7.74708">
        <ele>145</ele>
        <time>2021-08-07T09:49:06.130Z</time>
      </trkpt>
      <trkpt lat="48.58334" lon="7.74705">
        <ele>145</ele>
        <time>2021-08-07T09:49:11.130Z</time>
      </trkpt>
      <trkpt lat="48.5834" lon="7.747">
        <ele>145</ele>
        <time>2021-08-07T09:49:16.125Z</time>
      </trkpt>
      <trkpt lat="48.58346" lon="7.74695">
        <ele>145</ele>
        <time>2021-08-07T09:49:21.247Z</time>
      </trkpt>
      <trkpt lat="48.58351" lon="7.74691">
        <ele>148</ele>
        <time>2021-08-07T09:49:26.133Z</time>
      </trkpt>
      <trkpt lat="48.58356" lon="7.74687">
        <ele>148</ele>
        <time>2021-08-07T09:49:31.126Z</time>
      </trkpt>
      <trkpt lat="48.5836" lon="7.74682">
        <ele>148</ele>
        <time>2021-08-07T09:49:36.121Z</time>
      </trkpt>
      <trkpt lat="48.58365" lon="7.74679">
        <ele>146</ele>
        <time>2021-08-07T09:49:40.129Z</time>
      </trkpt>
      <trkpt lat="48.58369" lon="7.74674">
        <ele>146</ele>
        <time>2021-08-07T09:49:45.120Z</time>
      </trkpt>
      <trkpt lat="48.58375" lon="7.74672">
        <ele>146</ele>
        <time>2021-08-07T09:49:50.126Z</time>
      </trkpt>
      <trkpt lat="48.5838" lon="7.7467">
        <ele>149</ele>
        <time>2021-08-07T09:49:55.131Z</time>
      </trkpt>
      <trkpt lat="48.58386" lon="7.74666">
        <ele>149</ele>
        <time>2021-08-07T09:50:00.141Z</time>
      </trkpt>
      <trkpt lat="48.58391" lon="7.74662">
        <ele>149</ele>
        <time>2021-08-07T09:50:05.122Z</time>
      </trkpt>
      <trkpt lat="48.58396" lon="7.74657">
        <ele>149</ele>
        <time>2021-08-07T09:50:09.129Z</time>
      </trkpt>
      <trkpt lat="48.58402" lon="7.74652">
        <ele>147</ele>
        <time>2021-08-07T09:50:14.121Z</time>
      </trkpt>
      <trkpt lat="48.58407" lon="7.74652">
        <ele>148</ele>
        <time>2021-08-07T09:50:19.127Z</time>
      </trkpt>
      <trkpt lat="48.58412" lon="7.74652">
        <ele>148</ele>
        <time>2021-08-07T09:50:23.121Z</time>
      </trkpt>
      <trkpt lat="48.58418" lon="7.74651">
        <ele>148</ele>
        <time>2021-08-07T09:50:28.122Z</time>
      </trkpt>
      <trkpt lat="48.58424" lon="7.7465">
        <ele>148</ele>
        <time>2021-08-07T09:50:33.126Z</time>
      </trkpt>
      <trkpt lat="48.5843" lon="7.74649">
        <ele>148</ele>
        <time>2021-08-07T09:50:38.124Z</time>
      </trkpt>
      <trkpt lat="48.58436" lon="7.74647">
        <ele>149</ele>
        <time>2021-08-07T09:50:43.124Z</time>
      </trkpt>
      <trkpt lat="48.58442" lon="7.74645">
        <ele>149</ele>
        <time>2021-08-07T09:50:48.117Z</time>
      </trkpt>
      <trkpt lat="48.58446" lon="7.74644">
        <ele>149</ele>
        <time>2021-08-07T09:50:52.127Z</time>
      </trkpt>
      <trkpt lat="48.58451" lon="7.74644">
        <ele>149</ele>
        <time>2021-08-07T09:50:57.121Z</time>
      </trkpt>
      <trkpt lat="48.58455" lon="7.74644">
        <ele>149</ele>
        <time>2021-08-07T09:51:01.122Z</time>
      </trkpt>
      <trkpt lat="48.5846" lon="7.74642">
        <ele>149</ele>
        <time>2021-08-07T09:51:06.135Z</time>
      </trkpt>
      <trkpt lat="48.58466" lon="7.7464">
        <ele>149</ele>
        <time>2021-08-07T09:51:11.128Z</time>
      </trkpt>
      <trkpt lat="48.58473" lon="7.74639">
        <ele>149</ele>
        <time>2021-08-07T09:51:16.132Z</time>
      </trkpt>
      <trkpt lat="48.58479" lon="7.74641">
        <ele>149</ele>
        <time>2021-08-07T09:51:21.122Z</time>
      </trkpt>
      <trkpt lat="48.58484" lon="7.74645">
        <ele>149</ele>
        <time>2021-08-07T09:51:25.123Z</time>
      </trkpt>
      <trkpt lat="48.58491" lon="7.74648">
        <ele>146</ele>
        <time>2021-08-07T09:51:30.120Z</time>
      </trkpt>
      <trkpt lat="48.58496" lon="7.74645">
        <ele>146</ele>
        <time>2021-08-07T09:51:34.135Z</time>
      </trkpt>
      <trkpt lat="48.58499" lon="7.74637">
        <ele>146</ele>
        <time>2021-08-07T09:51:39.123Z</time>
      </trkpt>
      <trkpt lat="48.585" lon="7.74633">
        <ele>146</ele>
        <time>2021-08-07T09:51:44.112Z</time>
      </trkpt>
      <trkpt lat="48.58499" lon="7.74628">
        <ele>146</ele>
        <time>2021-08-07T09:51:48.122Z</time>
      </trkpt>
      <trkpt lat="48.58499" lon="7.74624">
        <ele>146</ele>
        <time>2021-08-07T09:51:52.134Z</time>
      </trkpt>
      <trkpt lat="48.58498" lon="7.74621">
        <ele>146</ele>
        <time>2021-08-07T09:51:57.133Z</time>
      </trkpt>
      <trkpt lat="48.58498" lon="7.74621">
        <ele>146</ele>
        <time>2021-08-07T09:52:02.125Z</time>
      </trkpt>
      <trkpt lat="48.58503" lon="7.74542">
        <ele>143</ele>
        <time>2021-08-07T09:53:09.121Z</time>
      </trkpt>
      <trkpt lat="48.58502" lon="7.74542">
        <ele>143</ele>
        <time>2021-08-07T09:53:14.124Z</time>
      </trkpt>
      <trkpt lat="48.58503" lon="7.74571">
        <ele>145</ele>
        <time>2021-08-07T09:55:28.115Z</time>
      </trkpt>
      <trkpt lat="48.58501" lon="7.74571">
        <ele>145</ele>
        <time>2021-08-07T09:55:32.114Z</time>
      </trkpt>
      <trkpt lat="48.585" lon="7.74574">
        <ele>145</ele>
        <time>2021-08-07T09:55:37.110Z</time>
      </trkpt>
    </trkseg>
  </trk>
</gpx>